FDX9721 PHNL-PGUM
Flight info
| Callsign | FDX9721 |
|---|---|
| Flight time | 7h 42m |
| Altitude | 32000 |
| Route | KEOLA3 NONNI BRIUN A450 SYSTA/N0488F340 A450 NGUEN/N0486F360 A450 DEWSS |
| Aircraft | MD11/H-SDE1E2E3FGHIJ2J3J4J5M1RWXY/LB1D1 |
Departure
| Time | 2026-04-25 10:29 |
|---|---|
| Airport | Daniel K. Inouye International Airport (PHNL) |
Arrival
| Time | 2026-04-25 18:12 |
|---|---|
| Airport | Antonio B. Won Pat International Airport (PGUM) |
| Time | Latitude | Longitude | Altitude | Speed | Heading |
|---|---|---|---|---|---|
| 2026-04-25 09:50 | 21.31866 | -157.91587 | 32 ft | 0 kts | 143° |
| 2026-04-25 10:18 | 21.31879 | -157.91598 | 31 ft | 4 kts | 143° |
| 2026-04-25 10:18 | 21.31900 | -157.91615 | 31 ft | 4 kts | 143° |
| 2026-04-25 10:18 | 21.31921 | -157.91632 | 31 ft | 3 kts | 143° |
| 2026-04-25 10:19 | 21.31939 | -157.91646 | 30 ft | 4 kts | 153° |
| 2026-04-25 10:19 | 21.31960 | -157.91654 | 30 ft | 4 kts | 189° |
| 2026-04-25 10:19 | 21.31979 | -157.91646 | 31 ft | 4 kts | 214° |
| 2026-04-25 10:19 | 21.31995 | -157.91634 | 31 ft | 0 kts | 214° |
| 2026-04-25 10:24 | 21.31977 | -157.91647 | 31 ft | 6 kts | 214° |
| 2026-04-25 10:24 | 21.31924 | -157.91687 | 31 ft | 12 kts | 214° |
| 2026-04-25 10:24 | 21.31854 | -157.91766 | 31 ft | 17 kts | 231° |
| 2026-04-25 10:25 | 21.31787 | -157.91861 | 32 ft | 15 kts | 232° |
| 2026-04-25 10:25 | 21.31726 | -157.91948 | 30 ft | 14 kts | 233° |
| 2026-04-25 10:25 | 21.31670 | -157.92028 | 32 ft | 14 kts | 233° |
| 2026-04-25 10:25 | 21.31615 | -157.92107 | 32 ft | 13 kts | 234° |
| 2026-04-25 10:26 | 21.31565 | -157.92179 | 32 ft | 11 kts | 233° |
| 2026-04-25 10:26 | 21.31519 | -157.92246 | 32 ft | 11 kts | 233° |
| 2026-04-25 10:26 | 21.31474 | -157.92310 | 30 ft | 10 kts | 233° |
| 2026-04-25 10:26 | 21.31431 | -157.92371 | 30 ft | 10 kts | 232° |
| 2026-04-25 10:27 | 21.31390 | -157.92428 | 32 ft | 9 kts | 232° |
| 2026-04-25 10:27 | 21.31351 | -157.92482 | 30 ft | 9 kts | 232° |
| 2026-04-25 10:27 | 21.31313 | -157.92535 | 32 ft | 9 kts | 232° |
| 2026-04-25 10:27 | 21.31291 | -157.92607 | 32 ft | 10 kts | 281° |
| 2026-04-25 10:28 | 21.31327 | -157.92645 | 30 ft | 7 kts | 323° |
| 2026-04-25 10:28 | 21.31373 | -157.92683 | 31 ft | 10 kts | 323° |
| 2026-04-25 10:28 | 21.31406 | -157.92694 | 30 ft | 2 kts | 7° |
| 2026-04-25 10:28 | 21.31417 | -157.92683 | 30 ft | 3 kts | 51° |
| 2026-04-25 10:29 | 21.31503 | -157.92561 | 30 ft | 58 kts | 53° |
| 2026-04-25 10:29 | 21.31921 | -157.91971 | 31 ft | 140 kts | 53° |
| 2026-04-25 10:29 | 21.32641 | -157.90964 | 159 ft | 187 kts | 52° |
| 2026-04-25 10:29 | 21.33450 | -157.89836 | 931 ft | 194 kts | 51° |
| 2026-04-25 10:30 | 21.34283 | -157.88680 | 1839 ft | 197 kts | 51° |
| 2026-04-25 10:30 | 21.34859 | -157.87904 | 2474 ft | 197 kts | 51° |
| 2026-04-25 10:30 | 21.36045 | -157.86485 | 3775 ft | 191 kts | 34° |
| 2026-04-25 10:30 | 21.37263 | -157.85994 | 4691 ft | 186 kts | 12° |
| 2026-04-25 10:31 | 21.38568 | -157.85656 | 5084 ft | 204 kts | 20° |
| 2026-04-25 10:31 | 21.40068 | -157.85474 | 5227 ft | 235 kts | 353° |
| 2026-04-25 10:31 | 21.41653 | -157.86213 | 5383 ft | 267 kts | 324° |
| 2026-04-25 10:31 | 21.42822 | -157.87837 | 5901 ft | 283 kts | 295° |
| 2026-04-25 10:32 | 21.43221 | -157.89933 | 6545 ft | 294 kts | 272° |
| 2026-04-25 10:32 | 21.43085 | -157.92135 | 7246 ft | 299 kts | 266° |
| 2026-04-25 10:32 | 21.42841 | -157.94357 | 8062 ft | 301 kts | 264° |
| 2026-04-25 10:32 | 21.42432 | -157.96565 | 8770 ft | 304 kts | 251° |
| 2026-04-25 10:33 | 21.41608 | -157.98661 | 9479 ft | 307 kts | 246° |
| 2026-04-25 10:33 | 21.40755 | -158.00776 | 10172 ft | 312 kts | 249° |
| 2026-04-25 10:33 | 21.39958 | -158.03042 | 10302 ft | 337 kts | 251° |
| 2026-04-25 10:33 | 21.39220 | -158.05520 | 10451 ft | 360 kts | 254° |
| 2026-04-25 10:34 | 21.38533 | -158.08167 | 10850 ft | 372 kts | 256° |
| 2026-04-25 10:34 | 21.37897 | -158.10873 | 11572 ft | 376 kts | 257° |
| 2026-04-25 10:34 | 21.37294 | -158.13606 | 12312 ft | 378 kts | 258° |
| 2026-04-25 10:34 | 21.36705 | -158.16369 | 13013 ft | 382 kts | 258° |
| 2026-04-25 10:35 | 21.36120 | -158.19163 | 13676 ft | 386 kts | 258° |
| 2026-04-25 10:35 | 21.35535 | -158.21982 | 14316 ft | 390 kts | 258° |
| 2026-04-25 10:35 | 21.34943 | -158.24833 | 14945 ft | 394 kts | 258° |
| 2026-04-25 10:35 | 21.34345 | -158.27714 | 15552 ft | 398 kts | 258° |
| 2026-04-25 10:36 | 21.33744 | -158.30621 | 16171 ft | 401 kts | 258° |
| 2026-04-25 10:36 | 21.33135 | -158.33554 | 16761 ft | 405 kts | 258° |
| 2026-04-25 10:36 | 21.32519 | -158.36519 | 17314 ft | 409 kts | 258° |
| 2026-04-25 10:36 | 21.31896 | -158.39511 | 17880 ft | 413 kts | 258° |
| 2026-04-25 10:37 | 21.31269 | -158.42525 | 18440 ft | 416 kts | 258° |
| 2026-04-25 10:37 | 21.30635 | -158.45562 | 19000 ft | 419 kts | 258° |
| 2026-04-25 10:37 | 21.30025 | -158.48626 | 19495 ft | 422 kts | 261° |
| 2026-04-25 10:37 | 21.29686 | -158.51764 | 19995 ft | 425 kts | 267° |
| 2026-04-25 10:38 | 21.29553 | -158.54943 | 20494 ft | 428 kts | 269° |
| 2026-04-25 10:38 | 21.29503 | -158.58145 | 20986 ft | 431 kts | 270° |
| 2026-04-25 10:38 | 21.29475 | -158.61332 | 21472 ft | 434 kts | 270° |
| 2026-04-25 10:38 | 21.29441 | -158.64580 | 21942 ft | 438 kts | 270° |
| 2026-04-25 10:39 | 21.29398 | -158.67852 | 22412 ft | 441 kts | 270° |
| 2026-04-25 10:39 | 21.29342 | -158.71146 | 22870 ft | 444 kts | 270° |
| 2026-04-25 10:39 | 21.29278 | -158.74469 | 23293 ft | 447 kts | 269° |
| 2026-04-25 10:39 | 21.29211 | -158.77858 | 23737 ft | 450 kts | 269° |
| 2026-04-25 10:40 | 21.29141 | -158.81226 | 24167 ft | 453 kts | 269° |
| 2026-04-25 10:40 | 21.29068 | -158.84565 | 24583 ft | 456 kts | 269° |
| 2026-04-25 10:40 | 21.28993 | -158.87975 | 25019 ft | 458 kts | 269° |
| 2026-04-25 10:40 | 21.28942 | -158.90289 | 25300 ft | 460 kts | 269° |
| 2026-04-25 10:41 | 21.28842 | -158.94838 | 25849 ft | 463 kts | 269° |
| 2026-04-25 10:41 | 21.28764 | -158.98284 | 26249 ft | 465 kts | 269° |
| 2026-04-25 10:41 | 21.28685 | -159.01769 | 26643 ft | 467 kts | 269° |
| 2026-04-25 10:41 | 21.28606 | -159.05255 | 27023 ft | 469 kts | 269° |
| 2026-04-25 10:42 | 21.28526 | -159.08756 | 27391 ft | 471 kts | 269° |
| 2026-04-25 10:42 | 21.28445 | -159.12274 | 27724 ft | 473 kts | 270° |
| 2026-04-25 10:42 | 21.28363 | -159.15812 | 28081 ft | 475 kts | 270° |
| 2026-04-25 10:42 | 21.28308 | -159.18163 | 28316 ft | 477 kts | 270° |
| 2026-04-25 10:43 | 21.28224 | -159.21723 | 28652 ft | 479 kts | 270° |
| 2026-04-25 10:43 | 21.28138 | -159.25295 | 28983 ft | 481 kts | 270° |
| 2026-04-25 10:43 | 21.28052 | -159.28886 | 29294 ft | 483 kts | 270° |
| 2026-04-25 10:43 | 21.27965 | -159.32494 | 29614 ft | 485 kts | 270° |
| 2026-04-25 10:44 | 21.27877 | -159.36119 | 29928 ft | 487 kts | 270° |
| 2026-04-25 10:44 | 21.27784 | -159.39755 | 30242 ft | 489 kts | 270° |
| 2026-04-25 10:44 | 21.27685 | -159.43394 | 30676 ft | 488 kts | 270° |
| 2026-04-25 10:44 | 21.27586 | -159.47029 | 31054 ft | 488 kts | 270° |
| 2026-04-25 10:45 | 21.27489 | -159.50665 | 31435 ft | 487 kts | 270° |
| 2026-04-25 10:45 | 21.27393 | -159.54283 | 31805 ft | 485 kts | 270° |
| 2026-04-25 10:45 | 21.27299 | -159.57894 | 32067 ft | 485 kts | 270° |
| 2026-04-25 10:46 | 21.27110 | -159.65131 | 32146 ft | 486 kts | 270° |
| 2026-04-25 10:46 | 21.26918 | -159.72386 | 32148 ft | 487 kts | 269° |
| 2026-04-25 10:47 | 21.26718 | -159.79637 | 32146 ft | 487 kts | 269° |
| 2026-04-25 10:47 | 21.26520 | -159.86888 | 32146 ft | 487 kts | 269° |
| 2026-04-25 10:48 | 21.26319 | -159.94146 | 32147 ft | 487 kts | 269° |
| 2026-04-25 10:48 | 21.26117 | -160.01406 | 32149 ft | 487 kts | 269° |
| 2026-04-25 10:49 | 21.25907 | -160.08673 | 32413 ft | 487 kts | 269° |
| 2026-04-25 10:49 | 21.25801 | -160.12304 | 32761 ft | 486 kts | 269° |
| 2026-04-25 10:49 | 21.25697 | -160.15872 | 33113 ft | 485 kts | 269° |
| 2026-04-25 10:49 | 21.25592 | -160.19478 | 33457 ft | 483 kts | 269° |
| 2026-04-25 10:50 | 21.25488 | -160.23074 | 33796 ft | 481 kts | 269° |
| 2026-04-25 10:50 | 21.25383 | -160.26656 | 34060 ft | 482 kts | 269° |
| 2026-04-25 10:50 | 21.25277 | -160.30247 | 34128 ft | 483 kts | 269° |
| 2026-04-25 10:51 | 21.25061 | -160.37412 | 34143 ft | 478 kts | 269° |
| 2026-04-25 10:51 | 21.24843 | -160.44515 | 34146 ft | 477 kts | 269° |
| 2026-04-25 10:52 | 21.24621 | -160.51634 | 34147 ft | 477 kts | 269° |
| 2026-04-25 10:52 | 21.24399 | -160.58740 | 34147 ft | 477 kts | 269° |
| 2026-04-25 10:53 | 21.24157 | -160.65841 | 34146 ft | 477 kts | 269° |
| 2026-04-25 10:53 | 21.23917 | -160.72941 | 34147 ft | 477 kts | 269° |
| 2026-04-25 10:54 | 21.23682 | -160.80041 | 34147 ft | 476 kts | 269° |
| 2026-04-25 10:54 | 21.23448 | -160.87128 | 34144 ft | 476 kts | 269° |
| 2026-04-25 10:55 | 21.23212 | -160.94223 | 34138 ft | 476 kts | 269° |
| 2026-04-25 10:55 | 21.22975 | -161.01311 | 34138 ft | 476 kts | 269° |
| 2026-04-25 10:56 | 21.22768 | -161.08356 | 34138 ft | 476 kts | 270° |
| 2026-04-25 10:56 | 21.22626 | -161.15494 | 34136 ft | 476 kts | 270° |
| 2026-04-25 10:57 | 21.22499 | -161.22530 | 34137 ft | 475 kts | 270° |
| 2026-04-25 10:57 | 21.22365 | -161.29614 | 34138 ft | 475 kts | 270° |
| 2026-04-25 10:58 | 21.22226 | -161.36697 | 34138 ft | 475 kts | 270° |
| 2026-04-25 10:58 | 21.22083 | -161.43782 | 34138 ft | 476 kts | 270° |
| 2026-04-25 10:59 | 21.21938 | -161.50869 | 34138 ft | 476 kts | 270° |
| 2026-04-25 10:59 | 21.21786 | -161.57959 | 34137 ft | 476 kts | 270° |
| 2026-04-25 11:00 | 21.21631 | -161.65052 | 34137 ft | 476 kts | 270° |
| 2026-04-25 11:00 | 21.21474 | -161.72152 | 34136 ft | 476 kts | 270° |
| 2026-04-25 11:01 | 21.21316 | -161.79241 | 34138 ft | 476 kts | 270° |
| 2026-04-25 11:01 | 21.21154 | -161.86342 | 34143 ft | 477 kts | 270° |
| 2026-04-25 11:02 | 21.20988 | -161.93439 | 34138 ft | 476 kts | 270° |
| 2026-04-25 11:02 | 21.20805 | -162.00534 | 34137 ft | 476 kts | 270° |
| 2026-04-25 11:03 | 21.20626 | -162.07618 | 34136 ft | 475 kts | 270° |
| 2026-04-25 11:03 | 21.20452 | -162.14690 | 34138 ft | 475 kts | 270° |
| 2026-04-25 11:04 | 21.20275 | -162.21758 | 34137 ft | 475 kts | 270° |
| 2026-04-25 11:04 | 21.20096 | -162.28832 | 34137 ft | 475 kts | 270° |
| 2026-04-25 11:05 | 21.19913 | -162.35902 | 34137 ft | 475 kts | 270° |
| 2026-04-25 11:05 | 21.19730 | -162.42970 | 34137 ft | 474 kts | 270° |
| 2026-04-25 11:06 | 21.19542 | -162.50025 | 34137 ft | 474 kts | 270° |
| 2026-04-25 11:06 | 21.19350 | -162.57027 | 34138 ft | 474 kts | 270° |
| 2026-04-25 11:07 | 21.19159 | -162.64081 | 34137 ft | 474 kts | 270° |
| 2026-04-25 11:07 | 21.18963 | -162.71127 | 34137 ft | 473 kts | 270° |
| 2026-04-25 11:08 | 21.18765 | -162.78163 | 34138 ft | 473 kts | 270° |
| 2026-04-25 11:08 | 21.18557 | -162.85202 | 34138 ft | 472 kts | 270° |
| 2026-04-25 11:09 | 21.18337 | -162.92229 | 34137 ft | 472 kts | 270° |
| 2026-04-25 11:09 | 21.18126 | -162.99255 | 34138 ft | 472 kts | 270° |
| 2026-04-25 11:10 | 21.17914 | -163.06282 | 34136 ft | 472 kts | 270° |
| 2026-04-25 11:10 | 21.17701 | -163.13299 | 34138 ft | 471 kts | 270° |
| 2026-04-25 11:11 | 21.17485 | -163.20313 | 34136 ft | 471 kts | 270° |
| 2026-04-25 11:11 | 21.17264 | -163.27335 | 34138 ft | 471 kts | 270° |
| 2026-04-25 11:12 | 21.17044 | -163.34344 | 34138 ft | 471 kts | 270° |
| 2026-04-25 11:12 | 21.16820 | -163.41361 | 34137 ft | 471 kts | 270° |
| 2026-04-25 11:13 | 21.16592 | -163.48376 | 34137 ft | 471 kts | 270° |
| 2026-04-25 11:13 | 21.16362 | -163.55382 | 34138 ft | 471 kts | 270° |
| 2026-04-25 11:14 | 21.16130 | -163.62387 | 34138 ft | 471 kts | 270° |
| 2026-04-25 11:14 | 21.15893 | -163.69396 | 34138 ft | 470 kts | 270° |
| 2026-04-25 11:15 | 21.15642 | -163.76398 | 34138 ft | 471 kts | 270° |
| 2026-04-25 11:15 | 21.15388 | -163.83406 | 34137 ft | 471 kts | 270° |
| 2026-04-25 11:16 | 21.15115 | -163.93870 | 34137 ft | 470 kts | 272° |
| 2026-04-25 11:16 | 21.15213 | -164.00876 | 34136 ft | 470 kts | 273° |
| 2026-04-25 11:17 | 21.15358 | -164.07862 | 34137 ft | 469 kts | 273° |
| 2026-04-25 11:17 | 21.15481 | -164.14839 | 34138 ft | 468 kts | 273° |
| 2026-04-25 11:18 | 21.15591 | -164.21814 | 34137 ft | 468 kts | 273° |
| 2026-04-25 11:18 | 21.15697 | -164.28795 | 34138 ft | 468 kts | 273° |
| 2026-04-25 11:19 | 21.15798 | -164.35771 | 34138 ft | 468 kts | 273° |
| 2026-04-25 11:19 | 21.15896 | -164.42746 | 34136 ft | 468 kts | 273° |
| 2026-04-25 11:20 | 21.15995 | -164.49718 | 34138 ft | 468 kts | 273° |
| 2026-04-25 11:20 | 21.16090 | -164.56685 | 34138 ft | 468 kts | 273° |
| 2026-04-25 11:21 | 21.16183 | -164.63647 | 34137 ft | 467 kts | 273° |
| 2026-04-25 11:21 | 21.16269 | -164.70605 | 34138 ft | 467 kts | 273° |
| 2026-04-25 11:22 | 21.16339 | -164.76389 | 34138 ft | 467 kts | 273° |
| 2026-04-25 11:22 | 21.16425 | -164.84475 | 34138 ft | 467 kts | 272° |
| 2026-04-25 11:23 | 21.16491 | -164.91426 | 34138 ft | 467 kts | 272° |
| 2026-04-25 11:23 | 21.16567 | -164.98381 | 34137 ft | 466 kts | 273° |
| 2026-04-25 11:24 | 21.16641 | -165.05322 | 34138 ft | 466 kts | 273° |
| 2026-04-25 11:24 | 21.16712 | -165.12263 | 34137 ft | 466 kts | 272° |
| 2026-04-25 11:25 | 21.16778 | -165.19204 | 34138 ft | 466 kts | 272° |
| 2026-04-25 11:25 | 21.16843 | -165.26139 | 34137 ft | 466 kts | 272° |
| 2026-04-25 11:26 | 21.16903 | -165.33086 | 34138 ft | 466 kts | 272° |
| 2026-04-25 11:26 | 21.16964 | -165.40026 | 34138 ft | 466 kts | 272° |
| 2026-04-25 11:27 | 21.17022 | -165.46965 | 34136 ft | 466 kts | 272° |
| 2026-04-25 11:27 | 21.17067 | -165.52736 | 34137 ft | 466 kts | 272° |
| 2026-04-25 11:28 | 21.17127 | -165.60851 | 34137 ft | 466 kts | 272° |
| 2026-04-25 11:28 | 21.17174 | -165.67788 | 34137 ft | 466 kts | 272° |
| 2026-04-25 11:29 | 21.17209 | -165.74725 | 34138 ft | 466 kts | 272° |
| 2026-04-25 11:29 | 21.17238 | -165.81666 | 34137 ft | 466 kts | 272° |
| 2026-04-25 11:30 | 21.17273 | -165.88604 | 34138 ft | 466 kts | 272° |
| 2026-04-25 11:30 | 21.17307 | -165.95545 | 34138 ft | 466 kts | 272° |
| 2026-04-25 11:31 | 21.17336 | -166.01310 | 34137 ft | 466 kts | 272° |
| 2026-04-25 11:31 | 21.17371 | -166.08242 | 34137 ft | 464 kts | 272° |
| 2026-04-25 11:32 | 21.17400 | -166.15164 | 34138 ft | 465 kts | 272° |
| 2026-04-25 11:32 | 21.17424 | -166.22091 | 34137 ft | 465 kts | 272° |
| 2026-04-25 11:33 | 21.17447 | -166.29017 | 34145 ft | 465 kts | 272° |
| 2026-04-25 11:33 | 21.17468 | -166.35936 | 34146 ft | 464 kts | 272° |
| 2026-04-25 11:34 | 21.17488 | -166.42860 | 34147 ft | 465 kts | 272° |
| 2026-04-25 11:34 | 21.17501 | -166.49781 | 34147 ft | 465 kts | 272° |
| 2026-04-25 11:35 | 21.17509 | -166.56701 | 34147 ft | 464 kts | 272° |
| 2026-04-25 11:35 | 21.17506 | -166.63622 | 34147 ft | 464 kts | 272° |
| 2026-04-25 11:36 | 21.17500 | -166.70545 | 34145 ft | 464 kts | 272° |
| 2026-04-25 11:36 | 21.17500 | -166.77465 | 34146 ft | 464 kts | 272° |
| 2026-04-25 11:37 | 21.17500 | -166.84380 | 34147 ft | 464 kts | 272° |
| 2026-04-25 11:37 | 21.17498 | -166.91297 | 34146 ft | 464 kts | 272° |
| 2026-04-25 11:38 | 21.17491 | -166.98209 | 34147 ft | 464 kts | 272° |
| 2026-04-25 11:38 | 21.17484 | -167.05130 | 34146 ft | 464 kts | 272° |
| 2026-04-25 11:39 | 21.17473 | -167.12044 | 34144 ft | 464 kts | 272° |
| 2026-04-25 11:39 | 21.17460 | -167.18966 | 34145 ft | 464 kts | 272° |
| 2026-04-25 11:40 | 21.17443 | -167.25881 | 34145 ft | 464 kts | 272° |
| 2026-04-25 11:40 | 21.17424 | -167.32753 | 34146 ft | 464 kts | 272° |
| 2026-04-25 11:41 | 21.17401 | -167.39667 | 34148 ft | 464 kts | 272° |
| 2026-04-25 11:41 | 21.17374 | -167.46585 | 34146 ft | 464 kts | 272° |
| 2026-04-25 11:42 | 21.17334 | -167.53504 | 34146 ft | 465 kts | 272° |
| 2026-04-25 11:42 | 21.17292 | -167.60427 | 34147 ft | 465 kts | 272° |
| 2026-04-25 11:43 | 21.17255 | -167.67350 | 34146 ft | 465 kts | 271° |
| 2026-04-25 11:43 | 21.17218 | -167.74284 | 34146 ft | 465 kts | 271° |
| 2026-04-25 11:44 | 21.17175 | -167.81210 | 34146 ft | 465 kts | 271° |
| 2026-04-25 11:44 | 21.17135 | -167.88143 | 34145 ft | 466 kts | 271° |
| 2026-04-25 11:45 | 21.17092 | -167.95080 | 34147 ft | 465 kts | 271° |
| 2026-04-25 11:45 | 21.17044 | -168.02013 | 34147 ft | 466 kts | 271° |
| 2026-04-25 11:46 | 21.16993 | -168.08945 | 34147 ft | 465 kts | 271° |
| 2026-04-25 11:46 | 21.16939 | -168.15870 | 34145 ft | 465 kts | 271° |
| 2026-04-25 11:47 | 21.16880 | -168.22789 | 34146 ft | 465 kts | 271° |
| 2026-04-25 11:47 | 21.16823 | -168.29714 | 34154 ft | 464 kts | 271° |
| 2026-04-25 11:48 | 21.16760 | -168.36637 | 34155 ft | 465 kts | 271° |
| 2026-04-25 11:48 | 21.16680 | -168.43556 | 34156 ft | 464 kts | 271° |
| 2026-04-25 11:49 | 21.16604 | -168.50472 | 34156 ft | 464 kts | 271° |
| 2026-04-25 11:49 | 21.16531 | -168.57386 | 34156 ft | 464 kts | 271° |
| 2026-04-25 11:50 | 21.16455 | -168.64303 | 34140 ft | 465 kts | 271° |
| 2026-04-25 11:50 | 21.16380 | -168.71215 | 34138 ft | 464 kts | 271° |
| 2026-04-25 11:51 | 21.16303 | -168.78126 | 34138 ft | 464 kts | 271° |
| 2026-04-25 11:51 | 21.16221 | -168.85031 | 34138 ft | 463 kts | 271° |
| 2026-04-25 11:52 | 21.16136 | -168.91939 | 34138 ft | 464 kts | 271° |
| 2026-04-25 11:52 | 21.16049 | -168.98847 | 34138 ft | 463 kts | 271° |
| 2026-04-25 11:53 | 21.15960 | -169.05746 | 34147 ft | 463 kts | 271° |
| 2026-04-25 11:53 | 21.15868 | -169.12599 | 34146 ft | 463 kts | 271° |
| 2026-04-25 11:54 | 21.15771 | -169.19499 | 34145 ft | 463 kts | 271° |
| 2026-04-25 11:55 | 21.15612 | -169.29847 | 34147 ft | 463 kts | 270° |
| 2026-04-25 11:55 | 21.15496 | -169.36742 | 34147 ft | 463 kts | 271° |
| 2026-04-25 11:56 | 21.15385 | -169.43643 | 34145 ft | 464 kts | 270° |
| 2026-04-25 11:56 | 21.15277 | -169.50553 | 34144 ft | 464 kts | 270° |
| 2026-04-25 11:57 | 21.15169 | -169.57459 | 34129 ft | 464 kts | 270° |
| 2026-04-25 11:57 | 21.15054 | -169.64363 | 34131 ft | 464 kts | 270° |
| 2026-04-25 11:58 | 21.14936 | -169.71272 | 34136 ft | 464 kts | 270° |
| 2026-04-25 11:58 | 21.14817 | -169.78177 | 34137 ft | 464 kts | 270° |
| 2026-04-25 11:59 | 21.14696 | -169.85087 | 34137 ft | 464 kts | 270° |
| 2026-04-25 11:59 | 21.14569 | -169.91990 | 34137 ft | 463 kts | 270° |
| 2026-04-25 12:00 | 21.14373 | -170.02346 | 34137 ft | 464 kts | 270° |
| 2026-04-25 12:01 | 21.14175 | -170.12701 | 34137 ft | 463 kts | 270° |
| 2026-04-25 12:01 | 21.14025 | -170.19610 | 34138 ft | 464 kts | 270° |
| 2026-04-25 12:02 | 21.13801 | -170.29966 | 34137 ft | 463 kts | 270° |
| 2026-04-25 12:02 | 21.13657 | -170.36866 | 34136 ft | 463 kts | 270° |
| 2026-04-25 12:03 | 21.13511 | -170.43769 | 34138 ft | 464 kts | 270° |
| 2026-04-25 12:03 | 21.13361 | -170.50666 | 34136 ft | 463 kts | 270° |
| 2026-04-25 12:04 | 21.13210 | -170.57520 | 34137 ft | 463 kts | 270° |
| 2026-04-25 12:04 | 21.13056 | -170.64422 | 34138 ft | 464 kts | 270° |
| 2026-04-25 12:05 | 21.12898 | -170.71331 | 34138 ft | 464 kts | 270° |
| 2026-04-25 12:05 | 21.12739 | -170.78239 | 34137 ft | 464 kts | 270° |
| 2026-04-25 12:06 | 21.12575 | -170.85141 | 34138 ft | 464 kts | 269° |
| 2026-04-25 12:06 | 21.12409 | -170.92042 | 34143 ft | 463 kts | 269° |
| 2026-04-25 12:07 | 21.12239 | -170.98939 | 34138 ft | 465 kts | 269° |
| 2026-04-25 12:07 | 21.12064 | -171.05868 | 34137 ft | 466 kts | 269° |
| 2026-04-25 12:08 | 21.11872 | -171.12806 | 34137 ft | 466 kts | 269° |
| 2026-04-25 12:08 | 21.11686 | -171.19739 | 34146 ft | 466 kts | 269° |
| 2026-04-25 12:09 | 21.11503 | -171.26674 | 34146 ft | 466 kts | 269° |
| 2026-04-25 12:09 | 21.11318 | -171.33608 | 34146 ft | 466 kts | 269° |
| 2026-04-25 12:10 | 21.11133 | -171.40542 | 34146 ft | 465 kts | 269° |
| 2026-04-25 12:10 | 21.10945 | -171.47425 | 34145 ft | 466 kts | 269° |
| 2026-04-25 12:11 | 21.10714 | -171.54352 | 34146 ft | 466 kts | 269° |
| 2026-04-25 12:11 | 21.10474 | -171.61280 | 34146 ft | 465 kts | 269° |
| 2026-04-25 12:12 | 21.10272 | -171.67085 | 34145 ft | 466 kts | 269° |
| 2026-04-25 12:12 | 21.09991 | -171.75145 | 34147 ft | 466 kts | 269° |
| 2026-04-25 12:13 | 21.09749 | -171.82074 | 34152 ft | 466 kts | 269° |
| 2026-04-25 12:13 | 21.09505 | -171.89004 | 34147 ft | 466 kts | 269° |
| 2026-04-25 12:14 | 21.09259 | -171.95938 | 34145 ft | 466 kts | 269° |
| 2026-04-25 12:14 | 21.09008 | -172.02866 | 34144 ft | 466 kts | 269° |
| 2026-04-25 12:15 | 21.08756 | -172.09800 | 34146 ft | 466 kts | 268° |
| 2026-04-25 12:15 | 21.08498 | -172.16742 | 34156 ft | 466 kts | 268° |
| 2026-04-25 12:16 | 21.08239 | -172.23679 | 34156 ft | 466 kts | 268° |
| 2026-04-25 12:16 | 21.07978 | -172.30615 | 34156 ft | 466 kts | 268° |
| 2026-04-25 12:17 | 21.07707 | -172.37552 | 34156 ft | 466 kts | 268° |
| 2026-04-25 12:17 | 21.07470 | -172.43316 | 34156 ft | 466 kts | 268° |
| 2026-04-25 12:18 | 21.07191 | -172.50252 | 34156 ft | 466 kts | 268° |
| 2026-04-25 12:18 | 21.06916 | -172.57190 | 34156 ft | 466 kts | 268° |
| 2026-04-25 12:19 | 21.06502 | -172.67590 | 34156 ft | 466 kts | 268° |
| 2026-04-25 12:20 | 21.06221 | -172.74530 | 34156 ft | 467 kts | 268° |
| 2026-04-25 12:20 | 21.05938 | -172.81477 | 34156 ft | 467 kts | 268° |
| 2026-04-25 12:21 | 21.05651 | -172.88425 | 34156 ft | 467 kts | 268° |
| 2026-04-25 12:21 | 21.05362 | -172.95371 | 34156 ft | 467 kts | 268° |
| 2026-04-25 12:22 | 21.05070 | -173.02318 | 34156 ft | 467 kts | 268° |
| 2026-04-25 12:22 | 21.04778 | -173.09218 | 34156 ft | 467 kts | 268° |
| 2026-04-25 12:23 | 21.04480 | -173.16158 | 34156 ft | 467 kts | 268° |
| 2026-04-25 12:23 | 21.04179 | -173.23100 | 34156 ft | 467 kts | 268° |
| 2026-04-25 12:24 | 21.03863 | -173.30045 | 34156 ft | 467 kts | 268° |
| 2026-04-25 12:24 | 21.03545 | -173.36991 | 34156 ft | 467 kts | 268° |
| 2026-04-25 12:25 | 21.03232 | -173.43939 | 34163 ft | 468 kts | 268° |
| 2026-04-25 12:25 | 21.02917 | -173.50900 | 34165 ft | 469 kts | 268° |
| 2026-04-25 12:26 | 21.02603 | -173.57859 | 34165 ft | 468 kts | 268° |
| 2026-04-25 12:26 | 21.02287 | -173.64816 | 34166 ft | 468 kts | 268° |
| 2026-04-25 12:27 | 21.01966 | -173.71774 | 34164 ft | 468 kts | 268° |
| 2026-04-25 12:27 | 21.01643 | -173.78727 | 34165 ft | 468 kts | 268° |
| 2026-04-25 12:28 | 21.01316 | -173.85688 | 34165 ft | 468 kts | 268° |
| 2026-04-25 12:28 | 21.00986 | -173.92641 | 34165 ft | 468 kts | 268° |
| 2026-04-25 12:29 | 21.00653 | -173.99592 | 34165 ft | 468 kts | 268° |
| 2026-04-25 12:29 | 21.00315 | -174.06549 | 34165 ft | 468 kts | 267° |
| 2026-04-25 12:30 | 20.99976 | -174.13515 | 34165 ft | 469 kts | 267° |
| 2026-04-25 12:30 | 20.99623 | -174.20477 | 34165 ft | 468 kts | 267° |
| 2026-04-25 12:31 | 20.99269 | -174.27439 | 34165 ft | 469 kts | 267° |
| 2026-04-25 12:31 | 20.98918 | -174.34406 | 34165 ft | 469 kts | 267° |
| 2026-04-25 12:32 | 20.98566 | -174.41369 | 34165 ft | 469 kts | 267° |
| 2026-04-25 12:32 | 20.98212 | -174.48336 | 34165 ft | 469 kts | 267° |
| 2026-04-25 12:33 | 20.97856 | -174.55301 | 34165 ft | 469 kts | 267° |
| 2026-04-25 12:33 | 20.97500 | -174.62263 | 34164 ft | 469 kts | 267° |
| 2026-04-25 12:34 | 20.97139 | -174.69177 | 34165 ft | 469 kts | 267° |
| 2026-04-25 12:34 | 20.96776 | -174.76139 | 34165 ft | 469 kts | 267° |
| 2026-04-25 12:35 | 20.96410 | -174.83100 | 34172 ft | 469 kts | 267° |
| 2026-04-25 12:35 | 20.96041 | -174.90063 | 34174 ft | 469 kts | 267° |
| 2026-04-25 12:36 | 20.95668 | -174.97024 | 34174 ft | 468 kts | 267° |
| 2026-04-25 12:36 | 20.95328 | -175.03267 | 34174 ft | 469 kts | 267° |
| 2026-04-25 12:37 | 20.94936 | -175.10228 | 34174 ft | 469 kts | 267° |
| 2026-04-25 12:37 | 20.94544 | -175.17184 | 34174 ft | 469 kts | 266° |
| 2026-04-25 12:38 | 20.94158 | -175.24145 | 34192 ft | 469 kts | 267° |
| 2026-04-25 12:38 | 20.93772 | -175.31111 | 34192 ft | 469 kts | 266° |
| 2026-04-25 12:39 | 20.93381 | -175.38073 | 34192 ft | 469 kts | 266° |
| 2026-04-25 12:39 | 20.93001 | -175.44847 | 34192 ft | 469 kts | 266° |
| 2026-04-25 12:40 | 20.92609 | -175.51724 | 34194 ft | 469 kts | 266° |
| 2026-04-25 12:40 | 20.92212 | -175.58684 | 34192 ft | 469 kts | 266° |
| 2026-04-25 12:41 | 20.91810 | -175.65647 | 34195 ft | 470 kts | 267° |
| 2026-04-25 12:41 | 20.91611 | -175.69135 | 34435 ft | 470 kts | 266° |
| 2026-04-25 12:41 | 20.91410 | -175.72623 | 34744 ft | 469 kts | 266° |
| 2026-04-25 12:41 | 20.91207 | -175.76098 | 35072 ft | 467 kts | 266° |
| 2026-04-25 12:42 | 20.91004 | -175.79561 | 35406 ft | 465 kts | 266° |
| 2026-04-25 12:42 | 20.90870 | -175.81842 | 35630 ft | 463 kts | 266° |
| 2026-04-25 12:42 | 20.90600 | -175.86420 | 36036 ft | 460 kts | 266° |
| 2026-04-25 12:42 | 20.90398 | -175.89839 | 36160 ft | 462 kts | 266° |
| 2026-04-25 12:43 | 20.90190 | -175.93267 | 36180 ft | 461 kts | 266° |
| 2026-04-25 12:43 | 20.89558 | -176.03455 | 36194 ft | 457 kts | 266° |
| 2026-04-25 12:44 | 20.89150 | -176.10199 | 36194 ft | 458 kts | 266° |
| 2026-04-25 12:45 | 20.88534 | -176.20391 | 36192 ft | 458 kts | 266° |
| 2026-04-25 12:45 | 20.87909 | -176.30579 | 36194 ft | 458 kts | 266° |
| 2026-04-25 12:46 | 20.87488 | -176.37366 | 36194 ft | 458 kts | 266° |
| 2026-04-25 12:46 | 20.87065 | -176.44154 | 36189 ft | 458 kts | 266° |
| 2026-04-25 12:47 | 20.86640 | -176.50942 | 36194 ft | 458 kts | 266° |
| 2026-04-25 12:47 | 20.86214 | -176.57731 | 36194 ft | 458 kts | 266° |
| 2026-04-25 12:48 | 20.85781 | -176.64526 | 36193 ft | 458 kts | 266° |
| 2026-04-25 12:48 | 20.85347 | -176.71323 | 36194 ft | 459 kts | 266° |
| 2026-04-25 12:49 | 20.84907 | -176.78127 | 36189 ft | 459 kts | 266° |
| 2026-04-25 12:49 | 20.84457 | -176.84937 | 36191 ft | 459 kts | 266° |
| 2026-04-25 12:50 | 20.84004 | -176.91748 | 36194 ft | 459 kts | 266° |
| 2026-04-25 12:50 | 20.83553 | -176.98556 | 36194 ft | 459 kts | 266° |
| 2026-04-25 12:51 | 20.83104 | -177.05366 | 36194 ft | 459 kts | 266° |
| 2026-04-25 12:51 | 20.82654 | -177.12174 | 36192 ft | 459 kts | 266° |
| 2026-04-25 12:52 | 20.82203 | -177.18940 | 36194 ft | 459 kts | 266° |
| 2026-04-25 12:52 | 20.81748 | -177.25749 | 36194 ft | 459 kts | 266° |
| 2026-04-25 12:53 | 20.81289 | -177.32556 | 36194 ft | 459 kts | 266° |
| 2026-04-25 12:53 | 20.80827 | -177.39364 | 36195 ft | 459 kts | 266° |
| 2026-04-25 12:54 | 20.80363 | -177.46174 | 36202 ft | 459 kts | 266° |
| 2026-04-25 12:54 | 20.79897 | -177.52968 | 36201 ft | 458 kts | 266° |
| 2026-04-25 12:55 | 20.79507 | -177.58618 | 36202 ft | 458 kts | 266° |
| 2026-04-25 12:55 | 20.78955 | -177.66557 | 36202 ft | 458 kts | 266° |
| 2026-04-25 12:56 | 20.78470 | -177.73343 | 36202 ft | 458 kts | 265° |
| 2026-04-25 12:56 | 20.77984 | -177.80079 | 36202 ft | 458 kts | 265° |
| 2026-04-25 12:57 | 20.77500 | -177.86865 | 36202 ft | 458 kts | 265° |
| 2026-04-25 12:57 | 20.77017 | -177.93648 | 36201 ft | 458 kts | 265° |
| 2026-04-25 12:58 | 20.76533 | -178.00433 | 36202 ft | 458 kts | 265° |
| 2026-04-25 12:58 | 20.76046 | -178.07219 | 36202 ft | 458 kts | 265° |
| 2026-04-25 12:59 | 20.75556 | -178.14001 | 36202 ft | 458 kts | 265° |
| 2026-04-25 12:59 | 20.75063 | -178.20786 | 36202 ft | 458 kts | 265° |
| 2026-04-25 13:00 | 20.74732 | -178.25323 | 36202 ft | 458 kts | 265° |
| 2026-04-25 13:00 | 20.74070 | -178.34358 | 36202 ft | 459 kts | 265° |
| 2026-04-25 13:01 | 20.73568 | -178.41160 | 36202 ft | 459 kts | 265° |
| 2026-04-25 13:01 | 20.73063 | -178.47953 | 36202 ft | 459 kts | 265° |
| 2026-04-25 13:02 | 20.72556 | -178.54747 | 36202 ft | 459 kts | 265° |
| 2026-04-25 13:02 | 20.72035 | -178.61541 | 36202 ft | 459 kts | 265° |
| 2026-04-25 13:03 | 20.71510 | -178.68332 | 36202 ft | 459 kts | 265° |
| 2026-04-25 13:03 | 20.70991 | -178.75128 | 36202 ft | 459 kts | 265° |
| 2026-04-25 13:04 | 20.70456 | -178.81921 | 36202 ft | 459 kts | 265° |
| 2026-04-25 13:04 | 20.69898 | -178.88665 | 36202 ft | 459 kts | 265° |
| 2026-04-25 13:05 | 20.69338 | -178.95457 | 36202 ft | 459 kts | 265° |
| 2026-04-25 13:05 | 20.68779 | -179.02248 | 36202 ft | 459 kts | 265° |
| 2026-04-25 13:06 | 20.68217 | -179.09037 | 36202 ft | 459 kts | 265° |
| 2026-04-25 13:06 | 20.67650 | -179.15824 | 36196 ft | 459 kts | 265° |
| 2026-04-25 13:07 | 20.67178 | -179.21465 | 36194 ft | 459 kts | 265° |
| 2026-04-25 13:07 | 20.66601 | -179.28297 | 36195 ft | 459 kts | 265° |
| 2026-04-25 13:08 | 20.66031 | -179.35037 | 36189 ft | 459 kts | 265° |
| 2026-04-25 13:08 | 20.65457 | -179.41822 | 36194 ft | 459 kts | 264° |
| 2026-04-25 13:09 | 20.64879 | -179.48611 | 36194 ft | 459 kts | 264° |
| 2026-04-25 13:09 | 20.64299 | -179.55396 | 36194 ft | 459 kts | 264° |
| 2026-04-25 13:10 | 20.63715 | -179.62186 | 36188 ft | 459 kts | 264° |
| 2026-04-25 13:10 | 20.63122 | -179.68956 | 36187 ft | 458 kts | 264° |
| 2026-04-25 13:11 | 20.62521 | -179.75725 | 36187 ft | 458 kts | 264° |
| 2026-04-25 13:11 | 20.61923 | -179.82501 | 36187 ft | 458 kts | 264° |
| 2026-04-25 13:12 | 20.61328 | -179.89268 | 36188 ft | 458 kts | 264° |
| 2026-04-25 13:12 | 20.60834 | -179.94887 | 36194 ft | 457 kts | 264° |
| 2026-04-25 13:13 | 20.60136 | 179.97215 | 36194 ft | 457 kts | 264° |
| 2026-04-25 13:13 | 20.59535 | 179.90448 | 36134 ft | 459 kts | 264° |
| 2026-04-25 13:14 | 20.58930 | 179.83667 | 36051 ft | 460 kts | 264° |
| 2026-04-25 13:14 | 20.58321 | 179.76865 | 35997 ft | 460 kts | 264° |
| 2026-04-25 13:15 | 20.57710 | 179.70069 | 35994 ft | 460 kts | 264° |
| 2026-04-25 13:15 | 20.57096 | 179.63270 | 35987 ft | 460 kts | 264° |
| 2026-04-25 13:16 | 20.56483 | 179.56514 | 35994 ft | 461 kts | 264° |
| 2026-04-25 13:16 | 20.55856 | 179.49658 | 35989 ft | 461 kts | 264° |
| 2026-04-25 13:17 | 20.55226 | 179.42853 | 35989 ft | 461 kts | 264° |
| 2026-04-25 13:17 | 20.54588 | 179.36077 | 35987 ft | 462 kts | 264° |
| 2026-04-25 13:18 | 20.53951 | 179.29256 | 35990 ft | 462 kts | 264° |
| 2026-04-25 13:18 | 20.53318 | 179.22435 | 35992 ft | 462 kts | 264° |
| 2026-04-25 13:19 | 20.52681 | 179.15607 | 35988 ft | 462 kts | 264° |
| 2026-04-25 13:19 | 20.52149 | 179.09930 | 35987 ft | 463 kts | 264° |
| 2026-04-25 13:20 | 20.51398 | 179.01937 | 35988 ft | 463 kts | 264° |
| 2026-04-25 13:20 | 20.50750 | 178.95096 | 35987 ft | 464 kts | 264° |
| 2026-04-25 13:21 | 20.50100 | 178.88246 | 35992 ft | 464 kts | 264° |
| 2026-04-25 13:21 | 20.49449 | 178.81401 | 35987 ft | 464 kts | 264° |
| 2026-04-25 13:22 | 20.48794 | 178.74548 | 35992 ft | 464 kts | 264° |
| 2026-04-25 13:23 | 20.47807 | 178.64277 | 35992 ft | 464 kts | 264° |
| 2026-04-25 13:23 | 20.47143 | 178.57429 | 35994 ft | 464 kts | 264° |
| 2026-04-25 13:24 | 20.46465 | 178.50587 | 35988 ft | 464 kts | 264° |
| 2026-04-25 13:24 | 20.45788 | 178.43741 | 36000 ft | 464 kts | 264° |
| 2026-04-25 13:25 | 20.45121 | 178.36943 | 36000 ft | 464 kts | 264° |
| 2026-04-25 13:25 | 20.44449 | 178.30113 | 35998 ft | 463 kts | 264° |
| 2026-04-25 13:26 | 20.43776 | 178.23284 | 35997 ft | 463 kts | 264° |
| 2026-04-25 13:26 | 20.43099 | 178.16455 | 35996 ft | 463 kts | 264° |
| 2026-04-25 13:27 | 20.42420 | 178.09628 | 36000 ft | 463 kts | 264° |
| 2026-04-25 13:27 | 20.41739 | 178.02797 | 35997 ft | 463 kts | 264° |
| 2026-04-25 13:28 | 20.41054 | 177.95968 | 35996 ft | 463 kts | 264° |
| 2026-04-25 13:28 | 20.40364 | 177.89127 | 35998 ft | 464 kts | 264° |
| 2026-04-25 13:29 | 20.39674 | 177.82285 | 35998 ft | 464 kts | 264° |
| 2026-04-25 13:29 | 20.38980 | 177.75446 | 36000 ft | 464 kts | 264° |
| 2026-04-25 13:30 | 20.37922 | 177.65190 | 35998 ft | 465 kts | 263° |
| 2026-04-25 13:31 | 20.36852 | 177.54909 | 35999 ft | 465 kts | 263° |
| 2026-04-25 13:31 | 20.36144 | 177.48051 | 36000 ft | 466 kts | 264° |
| 2026-04-25 13:32 | 20.35433 | 177.41180 | 36002 ft | 467 kts | 264° |
| 2026-04-25 13:32 | 20.34722 | 177.34296 | 35996 ft | 468 kts | 264° |
| 2026-04-25 13:33 | 20.34002 | 177.27407 | 35996 ft | 468 kts | 264° |
| 2026-04-25 13:33 | 20.33284 | 177.20558 | 35996 ft | 469 kts | 264° |
| 2026-04-25 13:34 | 20.32558 | 177.13655 | 35996 ft | 469 kts | 263° |
| 2026-04-25 13:34 | 20.31827 | 177.06744 | 35999 ft | 470 kts | 264° |
| 2026-04-25 13:35 | 20.31096 | 176.99828 | 36002 ft | 470 kts | 264° |
| 2026-04-25 13:35 | 20.30363 | 176.92894 | 36006 ft | 471 kts | 264° |
| 2026-04-25 13:36 | 20.29622 | 176.85965 | 36007 ft | 471 kts | 263° |
| 2026-04-25 13:36 | 20.28873 | 176.79042 | 36011 ft | 471 kts | 263° |
| 2026-04-25 13:37 | 20.28111 | 176.72120 | 36007 ft | 471 kts | 263° |
| 2026-04-25 13:37 | 20.27358 | 176.65193 | 36011 ft | 471 kts | 263° |
| 2026-04-25 13:38 | 20.26605 | 176.58263 | 36008 ft | 471 kts | 263° |
| 2026-04-25 13:38 | 20.25853 | 176.51334 | 36007 ft | 471 kts | 263° |
| 2026-04-25 13:39 | 20.25099 | 176.44410 | 36009 ft | 471 kts | 263° |
| 2026-04-25 13:39 | 20.24343 | 176.37489 | 36010 ft | 471 kts | 263° |
| 2026-04-25 13:40 | 20.23711 | 176.31737 | 36007 ft | 471 kts | 263° |
| 2026-04-25 13:40 | 20.22817 | 176.23646 | 36007 ft | 470 kts | 263° |
| 2026-04-25 13:41 | 20.22052 | 176.16741 | 36007 ft | 470 kts | 263° |
| 2026-04-25 13:41 | 20.21284 | 176.09835 | 36011 ft | 470 kts | 263° |
| 2026-04-25 13:42 | 20.20513 | 176.02928 | 36008 ft | 470 kts | 263° |
| 2026-04-25 13:42 | 20.19740 | 175.96024 | 36014 ft | 470 kts | 263° |
| 2026-04-25 13:43 | 20.18955 | 175.89124 | 36016 ft | 469 kts | 263° |
| 2026-04-25 13:43 | 20.18165 | 175.82223 | 36017 ft | 470 kts | 263° |
| 2026-04-25 13:44 | 20.17378 | 175.75315 | 36018 ft | 471 kts | 263° |
| 2026-04-25 13:44 | 20.16596 | 175.68446 | 36017 ft | 470 kts | 263° |
| 2026-04-25 13:45 | 20.15809 | 175.61538 | 36017 ft | 470 kts | 263° |
| 2026-04-25 13:45 | 20.15019 | 175.54629 | 36018 ft | 471 kts | 263° |
| 2026-04-25 13:46 | 20.14224 | 175.47714 | 36017 ft | 472 kts | 263° |
| 2026-04-25 13:46 | 20.13427 | 175.40779 | 36017 ft | 472 kts | 263° |
| 2026-04-25 13:47 | 20.12625 | 175.33840 | 36017 ft | 473 kts | 263° |
| 2026-04-25 13:47 | 20.11818 | 175.26893 | 36017 ft | 473 kts | 263° |
| 2026-04-25 13:48 | 20.11008 | 175.19937 | 36018 ft | 474 kts | 263° |
| 2026-04-25 13:48 | 20.10193 | 175.12977 | 36018 ft | 474 kts | 263° |
| 2026-04-25 13:49 | 20.09349 | 175.06021 | 36018 ft | 475 kts | 263° |
| 2026-04-25 13:49 | 20.08483 | 174.99051 | 36017 ft | 475 kts | 263° |
| 2026-04-25 13:50 | 20.07619 | 174.92071 | 36025 ft | 476 kts | 263° |
| 2026-04-25 13:50 | 20.06756 | 174.85098 | 36026 ft | 476 kts | 263° |
| 2026-04-25 13:51 | 20.05889 | 174.78128 | 36027 ft | 475 kts | 263° |
| 2026-04-25 13:51 | 20.05024 | 174.71159 | 36027 ft | 475 kts | 263° |
| 2026-04-25 13:52 | 20.04162 | 174.64235 | 36027 ft | 476 kts | 263° |
| 2026-04-25 13:52 | 20.03288 | 174.57260 | 36027 ft | 476 kts | 263° |
| 2026-04-25 13:53 | 20.02413 | 174.50287 | 36026 ft | 476 kts | 263° |
| 2026-04-25 13:53 | 20.01536 | 174.43321 | 36027 ft | 475 kts | 263° |
| 2026-04-25 13:54 | 20.00655 | 174.36359 | 36027 ft | 475 kts | 263° |
| 2026-04-25 13:54 | 19.99769 | 174.29398 | 36028 ft | 475 kts | 263° |
| 2026-04-25 13:55 | 19.98883 | 174.22449 | 36025 ft | 473 kts | 262° |
| 2026-04-25 13:55 | 19.97988 | 174.15523 | 36025 ft | 473 kts | 263° |
| 2026-04-25 13:56 | 19.97236 | 174.09706 | 36026 ft | 474 kts | 262° |
| 2026-04-25 13:56 | 19.96342 | 174.02763 | 36027 ft | 474 kts | 263° |
| 2026-04-25 13:57 | 19.95455 | 173.95866 | 36027 ft | 474 kts | 262° |
| 2026-04-25 13:57 | 19.94557 | 173.88923 | 36027 ft | 474 kts | 262° |
| 2026-04-25 13:58 | 19.93659 | 173.81982 | 36027 ft | 474 kts | 262° |
| 2026-04-25 13:58 | 19.92754 | 173.75043 | 36027 ft | 474 kts | 262° |
| 2026-04-25 13:59 | 19.91850 | 173.68109 | 36026 ft | 473 kts | 262° |
| 2026-04-25 13:59 | 19.90946 | 173.61186 | 36026 ft | 473 kts | 262° |
| 2026-04-25 14:00 | 19.90186 | 173.55394 | 36025 ft | 472 kts | 262° |
| 2026-04-25 14:00 | 19.89132 | 173.47369 | 36026 ft | 471 kts | 262° |
| 2026-04-25 14:01 | 19.88222 | 173.40481 | 36035 ft | 471 kts | 262° |
| 2026-04-25 14:01 | 19.87303 | 173.33588 | 36035 ft | 471 kts | 262° |
| 2026-04-25 14:02 | 19.86373 | 173.26713 | 36035 ft | 470 kts | 262° |
| 2026-04-25 14:02 | 19.85451 | 173.19835 | 36036 ft | 470 kts | 262° |
| 2026-04-25 14:03 | 19.84536 | 173.12975 | 36035 ft | 469 kts | 262° |
| 2026-04-25 14:03 | 19.83615 | 173.06108 | 36040 ft | 470 kts | 262° |
| 2026-04-25 14:04 | 19.82693 | 172.99242 | 36046 ft | 470 kts | 262° |
| 2026-04-25 14:04 | 19.81766 | 172.92375 | 36043 ft | 470 kts | 262° |
| 2026-04-25 14:05 | 19.80837 | 172.85505 | 36036 ft | 471 kts | 262° |
| 2026-04-25 14:05 | 19.79905 | 172.78629 | 36036 ft | 471 kts | 262° |
| 2026-04-25 14:06 | 19.78977 | 172.71791 | 36036 ft | 471 kts | 262° |
| 2026-04-25 14:06 | 19.78038 | 172.64903 | 36035 ft | 472 kts | 262° |
| 2026-04-25 14:07 | 19.77093 | 172.58004 | 36027 ft | 472 kts | 262° |
| 2026-04-25 14:07 | 19.76140 | 172.51096 | 36027 ft | 473 kts | 262° |
| 2026-04-25 14:08 | 19.75181 | 172.44186 | 36026 ft | 474 kts | 262° |
| 2026-04-25 14:08 | 19.74214 | 172.37264 | 36026 ft | 474 kts | 262° |
| 2026-04-25 14:09 | 19.73251 | 172.30331 | 36028 ft | 475 kts | 262° |
| 2026-04-25 14:09 | 19.72286 | 172.23387 | 36036 ft | 476 kts | 262° |
| 2026-04-25 14:10 | 19.71319 | 172.16440 | 36035 ft | 476 kts | 262° |
| 2026-04-25 14:10 | 19.70347 | 172.09495 | 36037 ft | 476 kts | 262° |
| 2026-04-25 14:11 | 19.69372 | 172.02542 | 36036 ft | 477 kts | 262° |
| 2026-04-25 14:11 | 19.68384 | 171.95587 | 36035 ft | 477 kts | 262° |
| 2026-04-25 14:12 | 19.67383 | 171.88672 | 36036 ft | 477 kts | 262° |
| 2026-04-25 14:12 | 19.66375 | 171.81717 | 36036 ft | 477 kts | 262° |
| 2026-04-25 14:13 | 19.65367 | 171.74761 | 36036 ft | 476 kts | 262° |
| 2026-04-25 14:13 | 19.64362 | 171.67823 | 36035 ft | 476 kts | 262° |
| 2026-04-25 14:14 | 19.63352 | 171.60885 | 36035 ft | 475 kts | 262° |
| 2026-04-25 14:14 | 19.62339 | 171.53959 | 36037 ft | 475 kts | 262° |
| 2026-04-25 14:15 | 19.61327 | 171.47041 | 36035 ft | 475 kts | 262° |
| 2026-04-25 14:15 | 19.60315 | 171.40128 | 36036 ft | 474 kts | 262° |
| 2026-04-25 14:16 | 19.59300 | 171.33230 | 36035 ft | 473 kts | 262° |
| 2026-04-25 14:16 | 19.58282 | 171.26345 | 36036 ft | 473 kts | 262° |
| 2026-04-25 14:17 | 19.57260 | 171.19458 | 36035 ft | 473 kts | 262° |
| 2026-04-25 14:17 | 19.56236 | 171.12571 | 36028 ft | 473 kts | 262° |
| 2026-04-25 14:18 | 19.55202 | 171.05685 | 36027 ft | 473 kts | 262° |
| 2026-04-25 14:18 | 19.54164 | 170.98797 | 36032 ft | 473 kts | 262° |
| 2026-04-25 14:19 | 19.53127 | 170.91914 | 36036 ft | 473 kts | 262° |
| 2026-04-25 14:19 | 19.52093 | 170.85023 | 36036 ft | 474 kts | 262° |
| 2026-04-25 14:20 | 19.51057 | 170.78120 | 36036 ft | 474 kts | 262° |
| 2026-04-25 14:20 | 19.50023 | 170.71264 | 36036 ft | 475 kts | 262° |
| 2026-04-25 14:21 | 19.48975 | 170.64359 | 36036 ft | 475 kts | 262° |
| 2026-04-25 14:21 | 19.47926 | 170.57440 | 36036 ft | 476 kts | 262° |
| 2026-04-25 14:22 | 19.46875 | 170.50514 | 36037 ft | 477 kts | 262° |
| 2026-04-25 14:22 | 19.45820 | 170.43578 | 36035 ft | 477 kts | 262° |
| 2026-04-25 14:23 | 19.44760 | 170.36637 | 36035 ft | 477 kts | 262° |
| 2026-04-25 14:23 | 19.43695 | 170.29696 | 36035 ft | 478 kts | 262° |
| 2026-04-25 14:24 | 19.42624 | 170.22750 | 36036 ft | 478 kts | 262° |
| 2026-04-25 14:24 | 19.41537 | 170.15795 | 36035 ft | 479 kts | 262° |
| 2026-04-25 14:25 | 19.40456 | 170.08842 | 36034 ft | 478 kts | 262° |
| 2026-04-25 14:25 | 19.39379 | 170.01884 | 36035 ft | 478 kts | 262° |
| 2026-04-25 14:26 | 19.38300 | 169.94932 | 36036 ft | 479 kts | 262° |
| 2026-04-25 14:26 | 19.37214 | 169.87956 | 36046 ft | 480 kts | 262° |
| 2026-04-25 14:27 | 19.36126 | 169.80985 | 36045 ft | 479 kts | 262° |
| 2026-04-25 14:27 | 19.35037 | 169.74024 | 36043 ft | 479 kts | 262° |
| 2026-04-25 14:28 | 19.33944 | 169.67064 | 36048 ft | 479 kts | 262° |
| 2026-04-25 14:28 | 19.32851 | 169.60110 | 36041 ft | 479 kts | 262° |
| 2026-04-25 14:29 | 19.31756 | 169.53165 | 36040 ft | 478 kts | 262° |
| 2026-04-25 14:29 | 19.30656 | 169.46222 | 36046 ft | 478 kts | 262° |
| 2026-04-25 14:30 | 19.29557 | 169.39284 | 36035 ft | 477 kts | 262° |
| 2026-04-25 14:30 | 19.27886 | 169.28887 | 36035 ft | 477 kts | 262° |
| 2026-04-25 14:31 | 19.26773 | 169.21962 | 36035 ft | 477 kts | 262° |
| 2026-04-25 14:31 | 19.25709 | 169.15301 | 36035 ft | 477 kts | 262° |
| 2026-04-25 14:32 | 19.24583 | 169.08287 | 36035 ft | 477 kts | 262° |
| 2026-04-25 14:32 | 19.23474 | 169.01369 | 36036 ft | 477 kts | 262° |
| 2026-04-25 14:33 | 19.22358 | 168.94441 | 36035 ft | 477 kts | 262° |
| 2026-04-25 14:33 | 19.21243 | 168.87528 | 36047 ft | 477 kts | 262° |
| 2026-04-25 14:34 | 19.20122 | 168.80610 | 36042 ft | 477 kts | 262° |
| 2026-04-25 14:34 | 19.18999 | 168.73687 | 36042 ft | 478 kts | 262° |
| 2026-04-25 14:35 | 19.17872 | 168.66757 | 36040 ft | 478 kts | 262° |
| 2026-04-25 14:35 | 19.16743 | 168.59828 | 36043 ft | 478 kts | 262° |
| 2026-04-25 14:36 | 19.15610 | 168.52899 | 36048 ft | 478 kts | 262° |
| 2026-04-25 14:36 | 19.14461 | 168.45970 | 36042 ft | 478 kts | 262° |
| 2026-04-25 14:37 | 19.13310 | 168.39040 | 36052 ft | 478 kts | 262° |
| 2026-04-25 14:37 | 19.12168 | 168.32108 | 36040 ft | 479 kts | 262° |
| 2026-04-25 14:38 | 19.11026 | 168.25177 | 36052 ft | 479 kts | 262° |
| 2026-04-25 14:38 | 19.09879 | 168.18247 | 36052 ft | 478 kts | 262° |
| 2026-04-25 14:39 | 19.08732 | 168.11327 | 36045 ft | 478 kts | 262° |
| 2026-04-25 14:39 | 19.07586 | 168.04442 | 36040 ft | 478 kts | 262° |
| 2026-04-25 14:40 | 19.06433 | 167.97519 | 36052 ft | 478 kts | 262° |
| 2026-04-25 14:40 | 19.05278 | 167.90598 | 36044 ft | 478 kts | 262° |
| 2026-04-25 14:41 | 19.04118 | 167.83678 | 36050 ft | 478 kts | 262° |
| 2026-04-25 14:41 | 19.02960 | 167.76766 | 36056 ft | 477 kts | 262° |
| 2026-04-25 14:42 | 19.02182 | 167.72146 | 36052 ft | 478 kts | 262° |
| 2026-04-25 14:42 | 19.00629 | 167.62953 | 36052 ft | 478 kts | 262° |
| 2026-04-25 14:43 | 18.99447 | 167.56056 | 36054 ft | 477 kts | 262° |
| 2026-04-25 14:43 | 18.98460 | 167.50282 | 36057 ft | 477 kts | 262° |
| 2026-04-25 14:44 | 18.97297 | 167.43444 | 36051 ft | 476 kts | 262° |
| 2026-04-25 14:44 | 18.96131 | 167.36567 | 36056 ft | 476 kts | 262° |
| 2026-04-25 14:45 | 18.94958 | 167.29692 | 36058 ft | 476 kts | 262° |
| 2026-04-25 14:45 | 18.93783 | 167.22820 | 36053 ft | 475 kts | 262° |
| 2026-04-25 14:46 | 18.92606 | 167.15955 | 36052 ft | 475 kts | 262° |
| 2026-04-25 14:46 | 18.91425 | 167.09085 | 36051 ft | 475 kts | 262° |
| 2026-04-25 14:47 | 18.90443 | 167.03382 | 36057 ft | 475 kts | 262° |
| 2026-04-25 14:47 | 18.89060 | 166.95361 | 36050 ft | 475 kts | 262° |
| 2026-04-25 14:48 | 18.87875 | 166.88504 | 36058 ft | 475 kts | 262° |
| 2026-04-25 14:48 | 18.86688 | 166.81658 | 36050 ft | 474 kts | 261° |
| 2026-04-25 14:49 | 18.85498 | 166.74846 | 36052 ft | 474 kts | 261° |
| 2026-04-25 14:49 | 18.84294 | 166.68002 | 36060 ft | 474 kts | 261° |
| 2026-04-25 14:50 | 18.83097 | 166.61165 | 36050 ft | 474 kts | 261° |
| 2026-04-25 14:50 | 18.81898 | 166.54329 | 36056 ft | 473 kts | 261° |
| 2026-04-25 14:51 | 18.80701 | 166.47504 | 36054 ft | 473 kts | 261° |
| 2026-04-25 14:51 | 18.79504 | 166.40688 | 36051 ft | 472 kts | 261° |
| 2026-04-25 14:52 | 18.78305 | 166.33871 | 36053 ft | 472 kts | 261° |
| 2026-04-25 14:52 | 18.77308 | 166.28215 | 36057 ft | 471 kts | 261° |
| 2026-04-25 14:53 | 18.75902 | 166.20264 | 36053 ft | 472 kts | 261° |
| 2026-04-25 14:53 | 18.74697 | 166.13465 | 36050 ft | 471 kts | 261° |
| 2026-04-25 14:54 | 18.73488 | 166.06668 | 36050 ft | 471 kts | 261° |
| 2026-04-25 14:54 | 18.72279 | 165.99890 | 36052 ft | 470 kts | 261° |
| 2026-04-25 14:55 | 18.71071 | 165.93114 | 36056 ft | 470 kts | 261° |
| 2026-04-25 14:55 | 18.69848 | 165.86336 | 36055 ft | 470 kts | 261° |
| 2026-04-25 14:56 | 18.68624 | 165.79564 | 36055 ft | 470 kts | 261° |
| 2026-04-25 14:56 | 18.67408 | 165.72792 | 36052 ft | 470 kts | 261° |
| 2026-04-25 14:57 | 18.66188 | 165.66016 | 36058 ft | 470 kts | 261° |
| 2026-04-25 14:57 | 18.64969 | 165.59248 | 36053 ft | 470 kts | 261° |
| 2026-04-25 14:58 | 18.63754 | 165.52518 | 36057 ft | 470 kts | 261° |
| 2026-04-25 14:58 | 18.62528 | 165.45750 | 36050 ft | 470 kts | 261° |
| 2026-04-25 14:59 | 18.61297 | 165.38975 | 36054 ft | 471 kts | 261° |
| 2026-04-25 14:59 | 18.60062 | 165.32195 | 36055 ft | 471 kts | 261° |
| 2026-04-25 15:00 | 18.58826 | 165.25412 | 36055 ft | 471 kts | 261° |
| 2026-04-25 15:00 | 18.57590 | 165.18629 | 36047 ft | 471 kts | 261° |
| 2026-04-25 15:01 | 18.56348 | 165.11851 | 36047 ft | 471 kts | 261° |
| 2026-04-25 15:01 | 18.55102 | 165.05070 | 36046 ft | 471 kts | 261° |
| 2026-04-25 15:02 | 18.53841 | 164.98292 | 36053 ft | 471 kts | 261° |
| 2026-04-25 15:02 | 18.52585 | 164.91516 | 36044 ft | 471 kts | 261° |
| 2026-04-25 15:03 | 18.51330 | 164.84736 | 36042 ft | 471 kts | 261° |
| 2026-04-25 15:03 | 18.50077 | 164.77959 | 36048 ft | 471 kts | 261° |
| 2026-04-25 15:04 | 18.48822 | 164.71183 | 36049 ft | 471 kts | 261° |
| 2026-04-25 15:04 | 18.47567 | 164.64417 | 36047 ft | 471 kts | 261° |
| 2026-04-25 15:05 | 18.46309 | 164.57657 | 36043 ft | 470 kts | 261° |
| 2026-04-25 15:06 | 18.44420 | 164.47532 | 36040 ft | 470 kts | 261° |
| 2026-04-25 15:06 | 18.43167 | 164.40837 | 36044 ft | 469 kts | 261° |
| 2026-04-25 15:07 | 18.41908 | 164.34105 | 36040 ft | 468 kts | 261° |
| 2026-04-25 15:07 | 18.40644 | 164.27383 | 36036 ft | 469 kts | 260° |
| 2026-04-25 15:08 | 18.39371 | 164.20629 | 36035 ft | 470 kts | 260° |
| 2026-04-25 15:08 | 18.38086 | 164.13882 | 36037 ft | 470 kts | 260° |
| 2026-04-25 15:09 | 18.36804 | 164.07140 | 36037 ft | 469 kts | 260° |
| 2026-04-25 15:09 | 18.34889 | 163.97037 | 36031 ft | 469 kts | 260° |
| 2026-04-25 15:10 | 18.33609 | 163.90305 | 36026 ft | 469 kts | 260° |
| 2026-04-25 15:11 | 18.31684 | 163.80206 | 36026 ft | 469 kts | 260° |
| 2026-04-25 15:11 | 18.30398 | 163.73466 | 36026 ft | 470 kts | 260° |
| 2026-04-25 15:12 | 18.28463 | 163.63361 | 36026 ft | 470 kts | 260° |
| 2026-04-25 15:12 | 18.27606 | 163.58890 | 36027 ft | 471 kts | 260° |
| 2026-04-25 15:13 | 18.25228 | 163.46520 | 36027 ft | 471 kts | 260° |
| 2026-04-25 15:14 | 18.23917 | 163.39713 | 36027 ft | 472 kts | 260° |
| 2026-04-25 15:14 | 18.22615 | 163.32989 | 36026 ft | 473 kts | 260° |
| 2026-04-25 15:15 | 18.21289 | 163.26215 | 36026 ft | 473 kts | 260° |
| 2026-04-25 15:15 | 18.19966 | 163.19435 | 36027 ft | 474 kts | 260° |
| 2026-04-25 15:16 | 18.18645 | 163.12641 | 36026 ft | 474 kts | 260° |
| 2026-04-25 15:16 | 18.16660 | 163.02442 | 36027 ft | 475 kts | 260° |
| 2026-04-25 15:17 | 18.14666 | 162.92235 | 36019 ft | 475 kts | 261° |
| 2026-04-25 15:18 | 18.13330 | 162.85421 | 36017 ft | 476 kts | 261° |
| 2026-04-25 15:18 | 18.11321 | 162.75202 | 36017 ft | 476 kts | 260° |
| 2026-04-25 15:19 | 18.10433 | 162.70694 | 36017 ft | 476 kts | 260° |
| 2026-04-25 15:19 | 18.08639 | 162.61591 | 36017 ft | 475 kts | 260° |
| 2026-04-25 15:20 | 18.07294 | 162.54784 | 36018 ft | 475 kts | 260° |
| 2026-04-25 15:20 | 18.05947 | 162.47985 | 36018 ft | 475 kts | 260° |
| 2026-04-25 15:21 | 18.04587 | 162.41185 | 36017 ft | 475 kts | 260° |
| 2026-04-25 15:21 | 18.03229 | 162.34391 | 36017 ft | 475 kts | 260° |
| 2026-04-25 15:22 | 18.01875 | 162.27610 | 36017 ft | 474 kts | 260° |
| 2026-04-25 15:22 | 18.00522 | 162.20824 | 36017 ft | 474 kts | 260° |
| 2026-04-25 15:23 | 17.99165 | 162.14051 | 36017 ft | 474 kts | 260° |
| 2026-04-25 15:23 | 17.97808 | 162.07279 | 36010 ft | 474 kts | 260° |
| 2026-04-25 15:24 | 17.96451 | 162.00504 | 36006 ft | 474 kts | 260° |
| 2026-04-25 15:24 | 17.95550 | 161.96020 | 36007 ft | 474 kts | 260° |
| 2026-04-25 15:25 | 17.93733 | 161.87009 | 36009 ft | 474 kts | 260° |
| 2026-04-25 15:25 | 17.92364 | 161.80238 | 36012 ft | 474 kts | 260° |
| 2026-04-25 15:26 | 17.91000 | 161.73477 | 36008 ft | 473 kts | 260° |
| 2026-04-25 15:26 | 17.89634 | 161.66719 | 36007 ft | 472 kts | 260° |
| 2026-04-25 15:27 | 17.88262 | 161.59978 | 36011 ft | 472 kts | 260° |
| 2026-04-25 15:28 | 17.86192 | 161.49874 | 36009 ft | 472 kts | 260° |
| 2026-04-25 15:28 | 17.84815 | 161.43145 | 36006 ft | 471 kts | 260° |
| 2026-04-25 15:29 | 17.83446 | 161.36441 | 36010 ft | 469 kts | 260° |
| 2026-04-25 15:29 | 17.82077 | 161.29747 | 36006 ft | 469 kts | 260° |
| 2026-04-25 15:30 | 17.80709 | 161.23063 | 36007 ft | 469 kts | 260° |
| 2026-04-25 15:30 | 17.79347 | 161.16433 | 36004 ft | 467 kts | 260° |
| 2026-04-25 15:31 | 17.77975 | 161.09771 | 36002 ft | 467 kts | 260° |
| 2026-04-25 15:31 | 17.76600 | 161.03104 | 36000 ft | 467 kts | 260° |
| 2026-04-25 15:32 | 17.75223 | 160.96439 | 36002 ft | 467 kts | 260° |
| 2026-04-25 15:32 | 17.73848 | 160.89784 | 35996 ft | 467 kts | 260° |
| 2026-04-25 15:33 | 17.71779 | 160.79795 | 35999 ft | 467 kts | 259° |
| 2026-04-25 15:33 | 17.70624 | 160.74266 | 35996 ft | 467 kts | 259° |
| 2026-04-25 15:34 | 17.69223 | 160.67612 | 36000 ft | 467 kts | 259° |
| 2026-04-25 15:34 | 17.68067 | 160.62084 | 35996 ft | 467 kts | 259° |
| 2026-04-25 15:35 | 17.65745 | 160.50963 | 36003 ft | 468 kts | 259° |
| 2026-04-25 15:36 | 17.63652 | 160.40959 | 35996 ft | 469 kts | 259° |
| 2026-04-25 15:36 | 17.62249 | 160.34282 | 35996 ft | 470 kts | 259° |
| 2026-04-25 15:37 | 17.60839 | 160.27589 | 36000 ft | 470 kts | 259° |
| 2026-04-25 15:37 | 17.59431 | 160.20908 | 36002 ft | 470 kts | 259° |
| 2026-04-25 15:38 | 17.58020 | 160.14225 | 35997 ft | 469 kts | 259° |
| 2026-04-25 15:38 | 17.56609 | 160.07542 | 35989 ft | 469 kts | 259° |
| 2026-04-25 15:39 | 17.55205 | 160.00910 | 35986 ft | 470 kts | 259° |
| 2026-04-25 15:39 | 17.53786 | 159.94227 | 35993 ft | 470 kts | 259° |
| 2026-04-25 15:40 | 17.52593 | 159.88639 | 35988 ft | 469 kts | 259° |
| 2026-04-25 15:40 | 17.50925 | 159.80887 | 35994 ft | 469 kts | 259° |
| 2026-04-25 15:41 | 17.49503 | 159.74231 | 35987 ft | 468 kts | 259° |
| 2026-04-25 15:41 | 17.48083 | 159.67584 | 35991 ft | 467 kts | 259° |
| 2026-04-25 15:42 | 17.46662 | 159.60944 | 35992 ft | 467 kts | 259° |
| 2026-04-25 15:42 | 17.45241 | 159.54312 | 35985 ft | 466 kts | 259° |
| 2026-04-25 15:43 | 17.43818 | 159.47683 | 35988 ft | 466 kts | 259° |
| 2026-04-25 15:43 | 17.42394 | 159.41064 | 35989 ft | 465 kts | 259° |
| 2026-04-25 15:44 | 17.40973 | 159.34465 | 35986 ft | 464 kts | 259° |
| 2026-04-25 15:44 | 17.39546 | 159.27870 | 35986 ft | 464 kts | 259° |
| 2026-04-25 15:45 | 17.38119 | 159.21275 | 35992 ft | 464 kts | 259° |
| 2026-04-25 15:45 | 17.36935 | 159.15806 | 35994 ft | 464 kts | 259° |
| 2026-04-25 15:46 | 17.35277 | 159.08151 | 35993 ft | 464 kts | 259° |
| 2026-04-25 15:46 | 17.33836 | 159.01573 | 35985 ft | 464 kts | 258° |
| 2026-04-25 15:47 | 17.32401 | 158.95002 | 35980 ft | 463 kts | 259° |
| 2026-04-25 15:47 | 17.30965 | 158.88423 | 35979 ft | 463 kts | 258° |
| 2026-04-25 15:48 | 17.29528 | 158.81854 | 35979 ft | 463 kts | 258° |
| 2026-04-25 15:48 | 17.28091 | 158.75285 | 35979 ft | 464 kts | 258° |
| 2026-04-25 15:49 | 17.26649 | 158.68705 | 35979 ft | 464 kts | 258° |
| 2026-04-25 15:49 | 17.25203 | 158.62128 | 35980 ft | 464 kts | 258° |
| 2026-04-25 15:50 | 17.23759 | 158.55547 | 35983 ft | 465 kts | 258° |
| 2026-04-25 15:50 | 17.22308 | 158.48963 | 35980 ft | 464 kts | 258° |
| 2026-04-25 15:51 | 17.21102 | 158.43494 | 35980 ft | 464 kts | 258° |
| 2026-04-25 15:51 | 17.19401 | 158.35803 | 35979 ft | 464 kts | 258° |
| 2026-04-25 15:52 | 17.17946 | 158.29228 | 35980 ft | 464 kts | 258° |
| 2026-04-25 15:52 | 17.16489 | 158.22650 | 35983 ft | 464 kts | 258° |
| 2026-04-25 15:53 | 17.15019 | 158.16083 | 35979 ft | 464 kts | 258° |
| 2026-04-25 15:53 | 17.13548 | 158.09510 | 35980 ft | 464 kts | 258° |
| 2026-04-25 15:54 | 17.12085 | 158.02949 | 35982 ft | 463 kts | 258° |
| 2026-04-25 15:54 | 17.10625 | 157.96392 | 35982 ft | 463 kts | 258° |
| 2026-04-25 15:55 | 17.09169 | 157.89869 | 35983 ft | 464 kts | 258° |
| 2026-04-25 15:55 | 17.07696 | 157.83301 | 35979 ft | 464 kts | 258° |
| 2026-04-25 15:56 | 17.06225 | 157.76738 | 35971 ft | 463 kts | 258° |
| 2026-04-25 15:56 | 17.04808 | 157.70174 | 35970 ft | 463 kts | 258° |
| 2026-04-25 15:57 | 17.03327 | 157.63623 | 35973 ft | 463 kts | 257° |
| 2026-04-25 15:57 | 17.01834 | 157.57091 | 35971 ft | 462 kts | 257° |
| 2026-04-25 15:58 | 17.00344 | 157.50566 | 35970 ft | 462 kts | 257° |
| 2026-04-25 15:58 | 16.98856 | 157.44042 | 35971 ft | 462 kts | 257° |
| 2026-04-25 15:59 | 16.97363 | 157.37513 | 35970 ft | 462 kts | 257° |
| 2026-04-25 15:59 | 16.95869 | 157.30994 | 35969 ft | 461 kts | 257° |
| 2026-04-25 16:00 | 16.94879 | 157.26674 | 35962 ft | 462 kts | 257° |
| 2026-04-25 16:00 | 16.92887 | 157.17993 | 35962 ft | 462 kts | 257° |
| 2026-04-25 16:01 | 16.91382 | 157.11435 | 35962 ft | 462 kts | 257° |
| 2026-04-25 16:01 | 16.89895 | 157.04913 | 35962 ft | 461 kts | 257° |
| 2026-04-25 16:02 | 16.88424 | 156.98439 | 35962 ft | 461 kts | 257° |
| 2026-04-25 16:02 | 16.86934 | 156.91920 | 35962 ft | 461 kts | 257° |
| 2026-04-25 16:03 | 16.85443 | 156.85411 | 35962 ft | 461 kts | 257° |
| 2026-04-25 16:03 | 16.83949 | 156.78894 | 35962 ft | 461 kts | 257° |
| 2026-04-25 16:04 | 16.82463 | 156.72403 | 35962 ft | 460 kts | 257° |
| 2026-04-25 16:04 | 16.80972 | 156.65906 | 35962 ft | 460 kts | 257° |
| 2026-04-25 16:05 | 16.79480 | 156.59414 | 35962 ft | 460 kts | 257° |
| 2026-04-25 16:06 | 16.77242 | 156.49697 | 35962 ft | 459 kts | 257° |
| 2026-04-25 16:06 | 16.75750 | 156.43231 | 35957 ft | 458 kts | 257° |
| 2026-04-25 16:07 | 16.74255 | 156.36773 | 35952 ft | 457 kts | 257° |
| 2026-04-25 16:07 | 16.72761 | 156.30332 | 35953 ft | 457 kts | 257° |
| 2026-04-25 16:08 | 16.71256 | 156.23901 | 35952 ft | 456 kts | 257° |
| 2026-04-25 16:08 | 16.69757 | 156.17479 | 35952 ft | 455 kts | 257° |
| 2026-04-25 16:09 | 16.68266 | 156.11066 | 35953 ft | 455 kts | 257° |
| 2026-04-25 16:09 | 16.66777 | 156.04661 | 35953 ft | 454 kts | 257° |
| 2026-04-25 16:10 | 16.65287 | 155.98270 | 35953 ft | 454 kts | 257° |
| 2026-04-25 16:10 | 16.63789 | 155.91869 | 35953 ft | 454 kts | 256° |
| 2026-04-25 16:11 | 16.62290 | 155.85466 | 35953 ft | 455 kts | 256° |
| 2026-04-25 16:11 | 16.60790 | 155.79059 | 35953 ft | 455 kts | 256° |
| 2026-04-25 16:12 | 16.59288 | 155.72659 | 35953 ft | 455 kts | 256° |
| 2026-04-25 16:12 | 16.57783 | 155.66260 | 35953 ft | 454 kts | 256° |
| 2026-04-25 16:13 | 16.56275 | 155.59858 | 35952 ft | 455 kts | 256° |
| 2026-04-25 16:13 | 16.54775 | 155.53491 | 35953 ft | 456 kts | 256° |
| 2026-04-25 16:14 | 16.53261 | 155.47076 | 35945 ft | 456 kts | 256° |
| 2026-04-25 16:14 | 16.51733 | 155.40661 | 35944 ft | 457 kts | 256° |
| 2026-04-25 16:15 | 16.50202 | 155.34233 | 35944 ft | 457 kts | 256° |
| 2026-04-25 16:15 | 16.48677 | 155.27807 | 35943 ft | 458 kts | 256° |
| 2026-04-25 16:16 | 16.47150 | 155.21372 | 35957 ft | 458 kts | 256° |
| 2026-04-25 16:16 | 16.45619 | 155.14936 | 35994 ft | 458 kts | 256° |
| 2026-04-25 16:17 | 16.44087 | 155.08491 | 35998 ft | 459 kts | 256° |
| 2026-04-25 16:17 | 16.42549 | 155.02031 | 35996 ft | 459 kts | 256° |
| 2026-04-25 16:18 | 16.41006 | 154.95586 | 36002 ft | 459 kts | 256° |
| 2026-04-25 16:18 | 16.39463 | 154.89136 | 36003 ft | 459 kts | 256° |
| 2026-04-25 16:19 | 16.37917 | 154.82680 | 36000 ft | 460 kts | 256° |
| 2026-04-25 16:19 | 16.36370 | 154.76224 | 35998 ft | 459 kts | 256° |
| 2026-04-25 16:20 | 16.34059 | 154.66607 | 35996 ft | 458 kts | 256° |
| 2026-04-25 16:21 | 16.31720 | 154.56954 | 35997 ft | 458 kts | 256° |
| 2026-04-25 16:21 | 16.30163 | 154.50523 | 36000 ft | 458 kts | 256° |
| 2026-04-25 16:22 | 16.28610 | 154.44098 | 36001 ft | 457 kts | 256° |
| 2026-04-25 16:22 | 16.27062 | 154.37693 | 35999 ft | 456 kts | 256° |
| 2026-04-25 16:23 | 16.25513 | 154.31297 | 35998 ft | 455 kts | 256° |
| 2026-04-25 16:23 | 16.24227 | 154.25991 | 36000 ft | 455 kts | 256° |
| 2026-04-25 16:24 | 16.22680 | 154.19618 | 35998 ft | 454 kts | 256° |
| 2026-04-25 16:24 | 16.21131 | 154.13256 | 36002 ft | 453 kts | 256° |
| 2026-04-25 16:25 | 16.19583 | 154.06904 | 36003 ft | 453 kts | 256° |
| 2026-04-25 16:25 | 16.18034 | 154.00554 | 35998 ft | 453 kts | 256° |
| 2026-04-25 16:26 | 16.16482 | 153.94206 | 35997 ft | 453 kts | 256° |
| 2026-04-25 16:26 | 16.14931 | 153.87857 | 35998 ft | 453 kts | 256° |
| 2026-04-25 16:27 | 16.13377 | 153.81508 | 35997 ft | 453 kts | 256° |
| 2026-04-25 16:27 | 16.11811 | 153.75161 | 35998 ft | 453 kts | 256° |
| 2026-04-25 16:28 | 16.10242 | 153.68804 | 36001 ft | 454 kts | 256° |
| 2026-04-25 16:28 | 16.08681 | 153.62486 | 36003 ft | 454 kts | 256° |
| 2026-04-25 16:29 | 16.07111 | 153.56114 | 36002 ft | 456 kts | 256° |
| 2026-04-25 16:29 | 16.05525 | 153.49678 | 36000 ft | 457 kts | 255° |
| 2026-04-25 16:30 | 16.03957 | 153.43322 | 36001 ft | 458 kts | 255° |
| 2026-04-25 16:30 | 16.02372 | 153.36906 | 36002 ft | 459 kts | 256° |
| 2026-04-25 16:31 | 16.00780 | 153.30467 | 35996 ft | 460 kts | 256° |
| 2026-04-25 16:31 | 15.99182 | 153.24021 | 36001 ft | 460 kts | 256° |
| 2026-04-25 16:32 | 15.97591 | 153.17617 | 36002 ft | 455 kts | 256° |
| 2026-04-25 16:32 | 15.96011 | 153.11263 | 35996 ft | 454 kts | 256° |
| 2026-04-25 16:33 | 15.94428 | 153.04901 | 35999 ft | 455 kts | 255° |
| 2026-04-25 16:33 | 15.92838 | 152.98526 | 35999 ft | 456 kts | 255° |
| 2026-04-25 16:34 | 15.91240 | 152.92158 | 36002 ft | 456 kts | 255° |
| 2026-04-25 16:34 | 15.89635 | 152.85773 | 35996 ft | 457 kts | 255° |
| 2026-04-25 16:35 | 15.88306 | 152.80465 | 36002 ft | 457 kts | 255° |
| 2026-04-25 16:35 | 15.86431 | 152.72991 | 36001 ft | 458 kts | 255° |
| 2026-04-25 16:36 | 15.84826 | 152.66594 | 35999 ft | 458 kts | 255° |
| 2026-04-25 16:36 | 15.83215 | 152.60193 | 36001 ft | 459 kts | 255° |
| 2026-04-25 16:37 | 15.81602 | 152.53777 | 35997 ft | 460 kts | 255° |
| 2026-04-25 16:37 | 15.79986 | 152.47351 | 35999 ft | 460 kts | 255° |
| 2026-04-25 16:38 | 15.78363 | 152.40929 | 35996 ft | 460 kts | 255° |
| 2026-04-25 16:38 | 15.76749 | 152.34540 | 35998 ft | 461 kts | 255° |
| 2026-04-25 16:39 | 15.75113 | 152.28063 | 35997 ft | 461 kts | 255° |
| 2026-04-25 16:39 | 15.73492 | 152.21663 | 35990 ft | 462 kts | 255° |
| 2026-04-25 16:40 | 15.71858 | 152.15224 | 35990 ft | 462 kts | 255° |
| 2026-04-25 16:40 | 15.70214 | 152.08780 | 35988 ft | 462 kts | 255° |
| 2026-04-25 16:41 | 15.68567 | 152.02341 | 35992 ft | 462 kts | 255° |
| 2026-04-25 16:41 | 15.66103 | 151.92686 | 35989 ft | 462 kts | 255° |
| 2026-04-25 16:42 | 15.64457 | 151.86233 | 35993 ft | 462 kts | 255° |
| 2026-04-25 16:42 | 15.62810 | 151.79781 | 35978 ft | 463 kts | 255° |
| 2026-04-25 16:43 | 15.61160 | 151.73330 | 35971 ft | 463 kts | 255° |
| 2026-04-25 16:43 | 15.59507 | 151.66880 | 35971 ft | 462 kts | 255° |
| 2026-04-25 16:44 | 15.57853 | 151.60439 | 35971 ft | 461 kts | 255° |
| 2026-04-25 16:44 | 15.56199 | 151.54009 | 35971 ft | 462 kts | 255° |
| 2026-04-25 16:45 | 15.54545 | 151.47572 | 35975 ft | 462 kts | 255° |
| 2026-04-25 16:45 | 15.52890 | 151.41145 | 35973 ft | 460 kts | 255° |
| 2026-04-25 16:46 | 15.51235 | 151.34730 | 35970 ft | 461 kts | 255° |
| 2026-04-25 16:46 | 15.50127 | 151.30435 | 35971 ft | 461 kts | 255° |
| 2026-04-25 16:47 | 15.47910 | 151.21895 | 35971 ft | 461 kts | 255° |
| 2026-04-25 16:47 | 15.46243 | 151.15480 | 35971 ft | 461 kts | 255° |
| 2026-04-25 16:48 | 15.44581 | 151.09068 | 35970 ft | 461 kts | 255° |
| 2026-04-25 16:48 | 15.42916 | 151.02658 | 35971 ft | 460 kts | 255° |
| 2026-04-25 16:49 | 15.41252 | 150.96249 | 35970 ft | 461 kts | 255° |
| 2026-04-25 16:49 | 15.39583 | 150.89824 | 35973 ft | 462 kts | 255° |
| 2026-04-25 16:50 | 15.37918 | 150.83439 | 35979 ft | 462 kts | 255° |
| 2026-04-25 16:50 | 15.36241 | 150.77015 | 35979 ft | 462 kts | 255° |
| 2026-04-25 16:51 | 15.34563 | 150.70587 | 35982 ft | 462 kts | 255° |
| 2026-04-25 16:51 | 15.33440 | 150.66288 | 35980 ft | 462 kts | 255° |
| 2026-04-25 16:52 | 15.31199 | 150.57728 | 35980 ft | 463 kts | 255° |
| 2026-04-25 16:52 | 15.29515 | 150.51301 | 35980 ft | 463 kts | 255° |
| 2026-04-25 16:53 | 15.26975 | 150.41658 | 35982 ft | 463 kts | 255° |
| 2026-04-25 16:54 | 15.25276 | 150.35230 | 35983 ft | 463 kts | 255° |
| 2026-04-25 16:54 | 15.23580 | 150.28801 | 35980 ft | 463 kts | 255° |
| 2026-04-25 16:55 | 15.21884 | 150.22371 | 35979 ft | 463 kts | 255° |
| 2026-04-25 16:55 | 15.20191 | 150.15947 | 35983 ft | 463 kts | 255° |
| 2026-04-25 16:56 | 15.18492 | 150.09518 | 35982 ft | 463 kts | 255° |
| 2026-04-25 16:56 | 15.16791 | 150.03098 | 35979 ft | 463 kts | 255° |
| 2026-04-25 16:57 | 15.15088 | 149.96672 | 35982 ft | 463 kts | 255° |
| 2026-04-25 16:57 | 15.13381 | 149.90234 | 36013 ft | 465 kts | 255° |
| 2026-04-25 16:58 | 15.11672 | 149.83785 | 36017 ft | 465 kts | 255° |
| 2026-04-25 16:58 | 15.09958 | 149.77339 | 36017 ft | 464 kts | 255° |
| 2026-04-25 16:59 | 15.08256 | 149.70953 | 36017 ft | 463 kts | 254° |
| 2026-04-25 16:59 | 15.06543 | 149.64524 | 36026 ft | 464 kts | 255° |
| 2026-04-25 17:00 | 15.05101 | 149.59136 | 36027 ft | 464 kts | 254° |
| 2026-04-25 17:00 | 15.03094 | 149.51665 | 36027 ft | 464 kts | 254° |
| 2026-04-25 17:01 | 15.01370 | 149.45236 | 36027 ft | 464 kts | 254° |
| 2026-04-25 17:01 | 14.99583 | 149.38830 | 36026 ft | 464 kts | 252° |
| 2026-04-25 17:02 | 14.97591 | 149.32489 | 36025 ft | 464 kts | 252° |
| 2026-04-25 17:02 | 14.95560 | 149.26160 | 36025 ft | 464 kts | 251° |
| 2026-04-25 17:03 | 14.93537 | 149.19832 | 36026 ft | 464 kts | 252° |
| 2026-04-25 17:03 | 14.91521 | 149.13495 | 36027 ft | 464 kts | 252° |
| 2026-04-25 17:04 | 14.89505 | 149.07151 | 36027 ft | 465 kts | 252° |
| 2026-04-25 17:04 | 14.87483 | 149.00803 | 36026 ft | 465 kts | 252° |
| 2026-04-25 17:05 | 14.85459 | 148.94465 | 36027 ft | 464 kts | 252° |
| 2026-04-25 17:05 | 14.82422 | 148.84955 | 36026 ft | 464 kts | 252° |
| 2026-04-25 17:06 | 14.80394 | 148.78616 | 36027 ft | 465 kts | 251° |
| 2026-04-25 17:06 | 14.78361 | 148.72269 | 36020 ft | 466 kts | 251° |
| 2026-04-25 17:07 | 14.76325 | 148.65915 | 36018 ft | 465 kts | 251° |
| 2026-04-25 17:07 | 14.74303 | 148.59611 | 36018 ft | 466 kts | 251° |
| 2026-04-25 17:08 | 14.72256 | 148.53266 | 36017 ft | 466 kts | 251° |
| 2026-04-25 17:08 | 14.70209 | 148.46922 | 36017 ft | 466 kts | 251° |
| 2026-04-25 17:09 | 14.68166 | 148.40579 | 36017 ft | 465 kts | 251° |
| 2026-04-25 17:09 | 14.66130 | 148.34252 | 36017 ft | 464 kts | 251° |
| 2026-04-25 17:10 | 14.64089 | 148.27922 | 36018 ft | 465 kts | 251° |
| 2026-04-25 17:10 | 14.62389 | 148.22665 | 36017 ft | 464 kts | 251° |
| 2026-04-25 17:11 | 14.60347 | 148.16339 | 36024 ft | 465 kts | 251° |
| 2026-04-25 17:11 | 14.58302 | 148.10017 | 36026 ft | 464 kts | 251° |
| 2026-04-25 17:12 | 14.56259 | 148.03710 | 36027 ft | 463 kts | 251° |
| 2026-04-25 17:12 | 14.54220 | 147.97411 | 36026 ft | 463 kts | 251° |
| 2026-04-25 17:13 | 14.52517 | 147.92161 | 36026 ft | 465 kts | 251° |
| 2026-04-25 17:13 | 14.50113 | 147.84764 | 36027 ft | 465 kts | 251° |
| 2026-04-25 17:14 | 14.48059 | 147.78437 | 36027 ft | 465 kts | 251° |
| 2026-04-25 17:14 | 14.45990 | 147.72116 | 36026 ft | 465 kts | 251° |
| 2026-04-25 17:15 | 14.43924 | 147.65798 | 36027 ft | 465 kts | 251° |
| 2026-04-25 17:15 | 14.41861 | 147.59473 | 36027 ft | 465 kts | 251° |
| 2026-04-25 17:16 | 14.39800 | 147.53157 | 36026 ft | 465 kts | 251° |
| 2026-04-25 17:16 | 14.37732 | 147.46831 | 36027 ft | 466 kts | 251° |
| 2026-04-25 17:17 | 14.35662 | 147.40502 | 36027 ft | 466 kts | 251° |
| 2026-04-25 17:17 | 14.34065 | 147.35623 | 36027 ft | 466 kts | 251° |
| 2026-04-25 17:37 | 14.33686 | 147.34468 | 36026 ft | 466 kts | 251° |
| 2026-04-25 17:37 | 14.31614 | 147.28139 | 36027 ft | 466 kts | 251° |
| 2026-04-25 17:38 | 14.29887 | 147.22871 | 36027 ft | 467 kts | 251° |
| 2026-04-25 17:38 | 14.27449 | 147.15454 | 36027 ft | 468 kts | 251° |
| 2026-04-25 17:39 | 14.25362 | 147.09101 | 36027 ft | 468 kts | 251° |
| 2026-04-25 17:39 | 14.23272 | 147.02742 | 36027 ft | 469 kts | 251° |
| 2026-04-25 17:40 | 14.21176 | 146.96377 | 36027 ft | 469 kts | 251° |
| 2026-04-25 17:40 | 14.19067 | 146.90011 | 36027 ft | 470 kts | 251° |
| 2026-04-25 17:41 | 14.16957 | 146.83644 | 36026 ft | 469 kts | 251° |
| 2026-04-25 17:41 | 14.14856 | 146.77285 | 36026 ft | 469 kts | 251° |
| 2026-04-25 17:42 | 14.12752 | 146.70917 | 36027 ft | 469 kts | 251° |
| 2026-04-25 17:42 | 14.10646 | 146.64548 | 36027 ft | 470 kts | 251° |
| 2026-04-25 17:43 | 14.08533 | 146.58174 | 36027 ft | 470 kts | 251° |
| 2026-04-25 17:43 | 14.06419 | 146.51798 | 36035 ft | 470 kts | 251° |
| 2026-04-25 17:44 | 14.04305 | 146.45429 | 36035 ft | 470 kts | 251° |
| 2026-04-25 17:44 | 14.02195 | 146.39093 | 36036 ft | 470 kts | 251° |
| 2026-04-25 17:45 | 14.00779 | 146.34836 | 36035 ft | 470 kts | 251° |
| 2026-04-25 17:45 | 13.97966 | 146.26370 | 36034 ft | 469 kts | 252° |
| 2026-04-25 17:46 | 13.95853 | 146.20022 | 36036 ft | 469 kts | 251° |
| 2026-04-25 17:46 | 13.93731 | 146.13674 | 36047 ft | 469 kts | 251° |
| 2026-04-25 17:47 | 13.91611 | 146.07363 | 36036 ft | 462 kts | 251° |
| 2026-04-25 17:47 | 13.89527 | 146.01140 | 36020 ft | 458 kts | 251° |
| 2026-04-25 17:48 | 13.87462 | 145.94966 | 33722 ft | 459 kts | 251° |
| 2026-04-25 17:48 | 13.86424 | 145.91856 | 32342 ft | 461 kts | 251° |
| 2026-04-25 17:48 | 13.85376 | 145.88726 | 30960 ft | 464 kts | 251° |
| 2026-04-25 17:49 | 13.84325 | 145.85590 | 30019 ft | 458 kts | 252° |
| 2026-04-25 17:49 | 13.83275 | 145.82458 | 29634 ft | 470 kts | 252° |
| 2026-04-25 17:49 | 13.82205 | 145.79267 | 29260 ft | 473 kts | 252° |
| 2026-04-25 17:49 | 13.81128 | 145.76055 | 28886 ft | 476 kts | 252° |
| 2026-04-25 17:50 | 13.80043 | 145.72822 | 28499 ft | 479 kts | 252° |
| 2026-04-25 17:50 | 13.78954 | 145.69580 | 28132 ft | 481 kts | 252° |
| 2026-04-25 17:50 | 13.77860 | 145.66329 | 27760 ft | 480 kts | 252° |
| 2026-04-25 17:50 | 13.76772 | 145.63094 | 27390 ft | 478 kts | 252° |
| 2026-04-25 17:51 | 13.75686 | 145.59871 | 27010 ft | 475 kts | 252° |
| 2026-04-25 17:51 | 13.74606 | 145.56665 | 26635 ft | 473 kts | 252° |
| 2026-04-25 17:51 | 13.73530 | 145.53469 | 26258 ft | 471 kts | 252° |
| 2026-04-25 17:51 | 13.72462 | 145.50296 | 25879 ft | 469 kts | 251° |
| 2026-04-25 17:52 | 13.71409 | 145.47172 | 25465 ft | 467 kts | 251° |
| 2026-04-25 17:52 | 13.71052 | 145.46112 | 25315 ft | 466 kts | 252° |
| 2026-04-25 17:52 | 13.69291 | 145.40887 | 24478 ft | 462 kts | 251° |
| 2026-04-25 17:52 | 13.68238 | 145.37772 | 23874 ft | 460 kts | 251° |
| 2026-04-25 17:53 | 13.67191 | 145.34671 | 23202 ft | 454 kts | 251° |
| 2026-04-25 17:53 | 13.66156 | 145.31616 | 22518 ft | 451 kts | 251° |
| 2026-04-25 17:53 | 13.65128 | 145.28582 | 21841 ft | 448 kts | 251° |
| 2026-04-25 17:53 | 13.64109 | 145.25574 | 21173 ft | 443 kts | 251° |
| 2026-04-25 17:54 | 13.63100 | 145.22596 | 20511 ft | 438 kts | 251° |
| 2026-04-25 17:54 | 13.62104 | 145.19659 | 19857 ft | 427 kts | 251° |
| 2026-04-25 17:54 | 13.61134 | 145.16802 | 18353 ft | 420 kts | 251° |
| 2026-04-25 17:54 | 13.60179 | 145.13983 | 17832 ft | 420 kts | 251° |
| 2026-04-25 17:55 | 13.59227 | 145.11169 | 17358 ft | 416 kts | 251° |
| 2026-04-25 17:55 | 13.58281 | 145.08371 | 16883 ft | 415 kts | 251° |
| 2026-04-25 17:55 | 13.57333 | 145.05578 | 16409 ft | 411 kts | 251° |
| 2026-04-25 17:55 | 13.56398 | 145.02821 | 15911 ft | 403 kts | 251° |
| 2026-04-25 17:56 | 13.55477 | 145.00104 | 15455 ft | 402 kts | 251° |
| 2026-04-25 17:56 | 13.54560 | 144.97397 | 14982 ft | 400 kts | 251° |
| 2026-04-25 17:56 | 13.53647 | 144.94710 | 14500 ft | 397 kts | 251° |
| 2026-04-25 17:56 | 13.52739 | 144.92046 | 14031 ft | 394 kts | 251° |
| 2026-04-25 17:57 | 13.51839 | 144.89402 | 13555 ft | 391 kts | 251° |
| 2026-04-25 17:57 | 13.50946 | 144.86779 | 13078 ft | 387 kts | 251° |
| 2026-04-25 17:57 | 13.50055 | 144.84180 | 12606 ft | 385 kts | 251° |
| 2026-04-25 17:57 | 13.49737 | 144.83320 | 12447 ft | 384 kts | 249° |
| 2026-04-25 17:58 | 13.47989 | 144.79155 | 11655 ft | 379 kts | 246° |
| 2026-04-25 17:58 | 13.46891 | 144.76700 | 11179 ft | 377 kts | 246° |
| 2026-04-25 17:58 | 13.45790 | 144.74260 | 10705 ft | 376 kts | 246° |
| 2026-04-25 17:58 | 13.45067 | 144.72660 | 10388 ft | 365 kts | 246° |
| 2026-04-25 17:59 | 13.44047 | 144.70405 | 9907 ft | 332 kts | 246° |
| 2026-04-25 17:59 | 13.42967 | 144.68433 | 9411 ft | 305 kts | 230° |
| 2026-04-25 17:59 | 13.41339 | 144.67097 | 8926 ft | 299 kts | 204° |
| 2026-04-25 17:59 | 13.39365 | 144.66515 | 8455 ft | 294 kts | 187° |
| 2026-04-25 18:00 | 13.37352 | 144.66249 | 7986 ft | 291 kts | 185° |
| 2026-04-25 18:00 | 13.35347 | 144.66025 | 7500 ft | 289 kts | 185° |
| 2026-04-25 18:00 | 13.33363 | 144.65812 | 7029 ft | 285 kts | 185° |
| 2026-04-25 18:00 | 13.31393 | 144.65599 | 6561 ft | 285 kts | 184° |
| 2026-04-25 18:01 | 13.29426 | 144.65377 | 6085 ft | 282 kts | 186° |
| 2026-04-25 18:01 | 13.27574 | 144.64747 | 5603 ft | 283 kts | 211° |
| 2026-04-25 18:01 | 13.26164 | 144.63364 | 5190 ft | 281 kts | 237° |
| 2026-04-25 18:01 | 13.25291 | 144.61592 | 4843 ft | 279 kts | 248° |
| 2026-04-25 18:02 | 13.24574 | 144.59729 | 4499 ft | 281 kts | 250° |
| 2026-04-25 18:02 | 13.23870 | 144.57857 | 4146 ft | 282 kts | 250° |
| 2026-04-25 18:02 | 13.23329 | 144.55943 | 3786 ft | 280 kts | 266° |
| 2026-04-25 18:02 | 13.23557 | 144.54000 | 3428 ft | 269 kts | 294° |
| 2026-04-25 18:03 | 13.24560 | 144.52452 | 3102 ft | 259 kts | 322° |
| 2026-04-25 18:03 | 13.26034 | 144.51425 | 3024 ft | 256 kts | 333° |
| 2026-04-25 18:03 | 13.27628 | 144.50651 | 2995 ft | 252 kts | 349° |
| 2026-04-25 18:03 | 13.29336 | 144.50642 | 3002 ft | 245 kts | 17° |
| 2026-04-25 18:04 | 13.30900 | 144.51308 | 3006 ft | 244 kts | 29° |
| 2026-04-25 18:04 | 13.32357 | 144.52095 | 3007 ft | 222 kts | 30° |
| 2026-04-25 18:04 | 13.33663 | 144.52798 | 2988 ft | 202 kts | 29° |
| 2026-04-25 18:04 | 13.34777 | 144.53446 | 2955 ft | 166 kts | 40° |
| 2026-04-25 18:05 | 13.35536 | 144.54198 | 2938 ft | 148 kts | 47° |
| 2026-04-25 18:05 | 13.36177 | 144.55007 | 3006 ft | 145 kts | 53° |
| 2026-04-25 18:05 | 13.36782 | 144.55835 | 3020 ft | 146 kts | 53° |
| 2026-04-25 18:05 | 13.37388 | 144.56662 | 3006 ft | 144 kts | 53° |
| 2026-04-25 18:06 | 13.37989 | 144.57480 | 3007 ft | 143 kts | 52° |
| 2026-04-25 18:06 | 13.38593 | 144.58308 | 3000 ft | 144 kts | 53° |
| 2026-04-25 18:06 | 13.39108 | 144.59197 | 3009 ft | 146 kts | 62° |
| 2026-04-25 18:06 | 13.39557 | 144.60112 | 2983 ft | 144 kts | 63° |
| 2026-04-25 18:07 | 13.39990 | 144.61039 | 3007 ft | 143 kts | 62° |
| 2026-04-25 18:07 | 13.40421 | 144.61951 | 2994 ft | 142 kts | 63° |
| 2026-04-25 18:07 | 13.40847 | 144.62867 | 2996 ft | 141 kts | 63° |
| 2026-04-25 18:07 | 13.41267 | 144.63781 | 3002 ft | 142 kts | 63° |
| 2026-04-25 18:08 | 13.41685 | 144.64694 | 3007 ft | 142 kts | 63° |
| 2026-04-25 18:08 | 13.42104 | 144.65614 | 2913 ft | 142 kts | 63° |
| 2026-04-25 18:08 | 13.42519 | 144.66532 | 2721 ft | 142 kts | 64° |
| 2026-04-25 18:08 | 13.42936 | 144.67449 | 2544 ft | 142 kts | 64° |
| 2026-04-25 18:09 | 13.43354 | 144.68370 | 2349 ft | 142 kts | 64° |
| 2026-04-25 18:09 | 13.43772 | 144.69291 | 2170 ft | 143 kts | 65° |
| 2026-04-25 18:09 | 13.44195 | 144.70224 | 1987 ft | 145 kts | 65° |
| 2026-04-25 18:09 | 13.44480 | 144.70848 | 1861 ft | 146 kts | 65° |
| 2026-04-25 18:10 | 13.45053 | 144.72113 | 1613 ft | 147 kts | 65° |
| 2026-04-25 18:10 | 13.45487 | 144.73072 | 1420 ft | 147 kts | 65° |
| 2026-04-25 18:10 | 13.45917 | 144.74024 | 1221 ft | 147 kts | 65° |
| 2026-04-25 18:10 | 13.46346 | 144.74975 | 1000 ft | 146 kts | 65° |
| 2026-04-25 18:11 | 13.46774 | 144.75921 | 812 ft | 146 kts | 65° |
| 2026-04-25 18:11 | 13.47202 | 144.76864 | 601 ft | 146 kts | 65° |
| 2026-04-25 18:11 | 13.47619 | 144.77800 | 413 ft | 147 kts | 65° |
| 2026-04-25 18:11 | 13.48041 | 144.78721 | 280 ft | 128 kts | 65° |
| 2026-04-25 18:12 | 13.48349 | 144.79394 | 286 ft | 82 kts | 65° |
| 2026-04-25 18:12 | 13.48557 | 144.79856 | 292 ft | 65 kts | 65° |
| 2026-04-25 18:12 | 13.48722 | 144.80195 | 297 ft | 34 kts | 54° |
| 2026-04-25 18:12 | 13.48827 | 144.80299 | 300 ft | 0 kts | 36° |
| 2026-04-25 18:13 | 13.48839 | 144.80308 | 300 ft | 7 kts | 36° |
| 2026-04-25 18:14 | 13.48881 | 144.80334 | 301 ft | 0 kts | 10° |
| 2026-04-25 18:14 | 13.48885 | 144.80335 | 301 ft | 4 kts | 10° |
| 2026-04-25 18:14 | 13.48926 | 144.80336 | 303 ft | 2 kts | 342° |
| 2026-04-25 18:14 | 13.48934 | 144.80333 | 302 ft | 1 kts | 340° |
| 2026-04-25 18:15 | 13.48960 | 144.80323 | 304 ft | 3 kts | 339° |
| 2026-04-25 18:15 | 13.48979 | 144.80314 | 303 ft | 3 kts | 334° |
| 2026-04-25 18:15 | 13.48995 | 144.80306 | 303 ft | 3 kts | 333° |
| 2026-04-25 18:15 | 13.49010 | 144.80298 | 303 ft | 2 kts | 333° |
| 2026-04-25 18:16 | 13.49019 | 144.80293 | 304 ft | 1 kts | 331° |
| 2026-04-25 18:16 | 13.49021 | 144.80292 | 303 ft | 0 kts | 329° |
| 2026-04-25 18:16 | 13.49028 | 144.80287 | 303 ft | 1 kts | 329° |
| 2026-04-25 18:17 | 13.49032 | 144.80285 | 303 ft | 1 kts | 329° |
| 2026-04-25 18:17 | 13.49033 | 144.80284 | 303 ft | 0 kts | 329° |